<?xml version='1.0' encoding='UTF-8'?><gpx version="1.1" creator="JPX - https://github.com/jenetics/jpx" xmlns="http://www.topografix.com/GPX/1/1"><trk><trkseg><trkpt lat="42.934573" lon="12.2199819"><ele>459.99999999999994</ele><time>2026-04-06T08:08:05.001Z</time></trkpt><trkpt lat="42.9345349" lon="12.2200511"><ele>460.0</ele><time>2026-04-06T08:08:10.005Z</time></trkpt><trkpt lat="42.9344967" lon="12.2201204"><ele>459.99999999999994</ele><time>2026-04-06T08:08:14.729Z</time></trkpt><trkpt lat="42.9344126" lon="12.2201232"><ele>459.99999999999994</ele><time>2026-04-06T08:08:19.002Z</time></trkpt><trkpt lat="42.9343403" lon="12.2201225"><ele>460.0</ele><time>2026-04-06T08:08:23.887Z</time></trkpt><trkpt lat="42.9342651" lon="12.2201325"><ele>459.99999999999994</ele><time>2026-04-06T08:08:29.002Z</time></trkpt><trkpt lat="42.9341919" lon="12.2201382"><ele>459.99999999999994</ele><time>2026-04-06T08:08:35.001Z</time></trkpt><trkpt lat="42.9341406" lon="12.2201935"><ele>461.2857142857142</ele><time>2026-04-06T08:08:41Z</time></trkpt><trkpt lat="42.934077" lon="12.2201847"><ele>462.57142857142856</ele><time>2026-04-06T08:08:48.001Z</time></trkpt><trkpt lat="42.9340131" lon="12.220181"><ele>463.85714285714283</ele><time>2026-04-06T08:08:52Z</time></trkpt><trkpt lat="42.9339456" lon="12.2201878"><ele>465.1428571428571</ele><time>2026-04-06T08:08:56.967Z</time></trkpt><trkpt lat="42.9338786" lon="12.2201736"><ele>466.42857142857144</ele><time>2026-04-06T08:09:03.001Z</time></trkpt><trkpt lat="42.9338108" lon="12.2201437"><ele>467.7142857142857</ele><time>2026-04-06T08:09:08.932Z</time></trkpt><trkpt lat="42.9337362" lon="12.2201393"><ele>469.0</ele><time>2026-04-06T08:09:16Z</time></trkpt><trkpt lat="42.9336735" lon="12.2201514"><ele>469.0</ele><time>2026-04-06T08:09:22.001Z</time></trkpt><trkpt lat="42.9336216" lon="12.2202035"><ele>469.0</ele><time>2026-04-06T08:09:28.001Z</time></trkpt><trkpt lat="42.9335636" lon="12.2202592"><ele>469.0</ele><time>2026-04-06T08:09:34Z</time></trkpt><trkpt lat="42.9335317" lon="12.2203461"><ele>469.0</ele><time>2026-04-06T08:09:41Z</time></trkpt><trkpt lat="42.9334961" lon="12.2204196"><ele>469.0</ele><time>2026-04-06T08:09:47.009Z</time></trkpt><trkpt lat="42.9334676" lon="12.2205076"><ele>469.0</ele><time>2026-04-06T08:09:53.002Z</time></trkpt><trkpt lat="42.9334367" lon="12.2205954"><ele>469.0</ele><time>2026-04-06T08:09:59Z</time></trkpt><trkpt lat="42.9334096" lon="12.2206807"><ele>468.2857142857143</ele><time>2026-04-06T08:10:05.001Z</time></trkpt><trkpt lat="42.9333846" lon="12.2207645"><ele>467.57142857142856</ele><time>2026-04-06T08:10:11Z</time></trkpt><trkpt lat="42.9333961" lon="12.2208525"><ele>466.8571428571429</ele><time>2026-04-06T08:10:25Z</time></trkpt><trkpt lat="42.9333683" lon="12.2209405"><ele>466.14285714285717</ele><time>2026-04-06T08:10:28.914Z</time></trkpt><trkpt lat="42.9333509" lon="12.2210288"><ele>465.42857142857144</ele><time>2026-04-06T08:10:34.002Z</time></trkpt><trkpt lat="42.9333644" lon="12.2211151"><ele>464.7142857142858</ele><time>2026-04-06T08:10:39Z</time></trkpt><trkpt lat="42.9333947" lon="12.2212091"><ele>464.00000000000006</ele><time>2026-04-06T08:10:45Z</time></trkpt><trkpt lat="42.933424" lon="12.2212902"><ele>462.1428571428572</ele><time>2026-04-06T08:10:51.001Z</time></trkpt><trkpt lat="42.9334486" lon="12.2213802"><ele>460.28571428571433</ele><time>2026-04-06T08:10:57.002Z</time></trkpt><trkpt lat="42.9334727" lon="12.2214768"><ele>458.42857142857144</ele><time>2026-04-06T08:11:03.001Z</time></trkpt><trkpt lat="42.9334928" lon="12.2215752"><ele>456.5714285714286</ele><time>2026-04-06T08:11:09.005Z</time></trkpt><trkpt lat="42.9335146" lon="12.2216704"><ele>454.7142857142858</ele><time>2026-04-06T08:11:15.001Z</time></trkpt><trkpt lat="42.9335606" lon="12.2217346"><ele>452.85714285714283</ele><time>2026-04-06T08:11:25Z</time></trkpt><trkpt lat="42.9335865" lon="12.2218306"><ele>451.0</ele><time>2026-04-06T08:11:29.002Z</time></trkpt><trkpt lat="42.933597" lon="12.2219242"><ele>451.42857142857144</ele><time>2026-04-06T08:11:34.001Z</time></trkpt><trkpt lat="42.9336191" lon="12.222023"><ele>451.8571428571429</ele><time>2026-04-06T08:11:40Z</time></trkpt><trkpt lat="42.9336218" lon="12.2221257"><ele>452.28571428571433</ele><time>2026-04-06T08:11:45.968Z</time></trkpt><trkpt lat="42.9336527" lon="12.2222116"><ele>452.7142857142857</ele><time>2026-04-06T08:11:52.019Z</time></trkpt><trkpt lat="42.9336643" lon="12.2222962"><ele>453.1428571428572</ele><time>2026-04-06T08:11:57Z</time></trkpt><trkpt lat="42.933684" lon="12.2223907"><ele>453.5714285714286</ele><time>2026-04-06T08:12:02.947Z</time></trkpt><trkpt lat="42.9337292" lon="12.222453"><ele>454.0</ele><time>2026-04-06T08:12:08Z</time></trkpt><trkpt lat="42.9337815" lon="12.2225083"><ele>454.0</ele><time>2026-04-06T08:12:12.948Z</time></trkpt><trkpt lat="42.9338322" lon="12.2225672"><ele>454.00000000000006</ele><time>2026-04-06T08:12:18.009Z</time></trkpt><trkpt lat="42.9338766" lon="12.2226347"><ele>454.0</ele><time>2026-04-06T08:12:23Z</time></trkpt><trkpt lat="42.9339275" lon="12.2226986"><ele>454.0</ele><time>2026-04-06T08:12:28.002Z</time></trkpt><trkpt lat="42.9339795" lon="12.2227606"><ele>454.00000000000006</ele><time>2026-04-06T08:12:33Z</time></trkpt><trkpt lat="42.9340351" lon="12.2228223"><ele>454.0</ele><time>2026-04-06T08:12:38Z</time></trkpt><trkpt lat="42.9340997" lon="12.2228163"><ele>454.0</ele><time>2026-04-06T08:12:43.011Z</time></trkpt><trkpt lat="42.9341456" lon="12.2228803"><ele>454.0</ele><time>2026-04-06T08:12:57.001Z</time></trkpt><trkpt lat="42.9341873" lon="12.2229543"><ele>454.00000000000006</ele><time>2026-04-06T08:13:02Z</time></trkpt><trkpt lat="42.9342355" lon="12.2230209"><ele>454.0</ele><time>2026-04-06T08:13:07.002Z</time></trkpt><trkpt lat="42.9342884" lon="12.2230709"><ele>454.0</ele><time>2026-04-06T08:13:12.001Z</time></trkpt><trkpt lat="42.934347" lon="12.2231283"><ele>454.00000000000006</ele><time>2026-04-06T08:13:17.967Z</time></trkpt><trkpt lat="42.9344032" lon="12.2231877"><ele>454.0</ele><time>2026-04-06T08:13:24Z</time></trkpt><trkpt lat="42.9344574" lon="12.2232438"><ele>454.0</ele><time>2026-04-06T08:13:29.001Z</time></trkpt><trkpt lat="42.934487" lon="12.2233214"><ele>453.14285714285717</ele><time>2026-04-06T08:13:34.952Z</time></trkpt><trkpt lat="42.9344846" lon="12.2234218"><ele>452.28571428571433</ele><time>2026-04-06T08:13:41Z</time></trkpt><trkpt lat="42.9344412" lon="12.2235044"><ele>451.42857142857144</ele><time>2026-04-06T08:13:46.984Z</time></trkpt><trkpt lat="42.9343678" lon="12.2235184"><ele>450.57142857142856</ele><time>2026-04-06T08:13:52.001Z</time></trkpt><trkpt lat="42.9342969" lon="12.2235218"><ele>449.7142857142857</ele><time>2026-04-06T08:13:58Z</time></trkpt><trkpt lat="42.9342292" lon="12.2235432"><ele>448.8571428571429</ele><time>2026-04-06T08:14:03.004Z</time></trkpt><trkpt lat="42.9341611" lon="12.2235482"><ele>448.0</ele><time>2026-04-06T08:14:08Z</time></trkpt><trkpt lat="42.9340972" lon="12.2235543"><ele>449.8571428571429</ele><time>2026-04-06T08:14:13Z</time></trkpt><trkpt lat="42.9340279" lon="12.2235499"><ele>451.7142857142857</ele><time>2026-04-06T08:14:19Z</time></trkpt><trkpt lat="42.9339613" lon="12.2235746"><ele>453.57142857142856</ele><time>2026-04-06T08:14:25.001Z</time></trkpt><trkpt lat="42.9338945" lon="12.2235821"><ele>455.42857142857144</ele><time>2026-04-06T08:14:32.001Z</time></trkpt><trkpt lat="42.9338446" lon="12.2236595"><ele>457.28571428571433</ele><time>2026-04-06T08:14:39Z</time></trkpt><trkpt lat="42.9337874" lon="12.2237094"><ele>459.14285714285717</ele><time>2026-04-06T08:14:48Z</time></trkpt><trkpt lat="42.9337965" lon="12.2237985"><ele>461.0</ele><time>2026-04-06T08:15:01.001Z</time></trkpt><trkpt lat="42.9338115" lon="12.2238842"><ele>461.0</ele><time>2026-04-06T08:15:07Z</time></trkpt><trkpt lat="42.9337998" lon="12.2239788"><ele>461.00000000000006</ele><time>2026-04-06T08:15:15.001Z</time></trkpt><trkpt lat="42.9337769" lon="12.2240738"><ele>461.0</ele><time>2026-04-06T08:15:22.001Z</time></trkpt><trkpt lat="42.9337508" lon="12.2241565"><ele>461.0</ele><time>2026-04-06T08:15:28Z</time></trkpt><trkpt lat="42.9337317" lon="12.2242521"><ele>461.00000000000006</ele><time>2026-04-06T08:15:34Z</time></trkpt><trkpt lat="42.9337099" lon="12.2243369"><ele>461.0</ele><time>2026-04-06T08:15:39.99Z</time></trkpt><trkpt lat="42.9336745" lon="12.224411"><ele>461.0</ele><time>2026-04-06T08:15:46.001Z</time></trkpt><trkpt lat="42.93363" lon="12.2244785"><ele>459.0</ele><time>2026-04-06T08:15:53.002Z</time></trkpt><trkpt lat="42.9335798" lon="12.2245529"><ele>457.00000000000006</ele><time>2026-04-06T08:16:01Z</time></trkpt><trkpt lat="42.933564" lon="12.2246437"><ele>455.0</ele><time>2026-04-06T08:16:07Z</time></trkpt><trkpt lat="42.9335286" lon="12.2247248"><ele>453.0</ele><time>2026-04-06T08:16:13.003Z</time></trkpt><trkpt lat="42.9334891" lon="12.2248085"><ele>451.0</ele><time>2026-04-06T08:16:19Z</time></trkpt><trkpt lat="42.93346" lon="12.2248974"><ele>449.0</ele><time>2026-04-06T08:16:24.994Z</time></trkpt><trkpt lat="42.9334269" lon="12.2249881"><ele>447.0</ele><time>2026-04-06T08:16:31.001Z</time></trkpt><trkpt lat="42.933403" lon="12.2250861"><ele>446.57142857142856</ele><time>2026-04-06T08:16:37Z</time></trkpt><trkpt lat="42.9333898" lon="12.2251748"><ele>446.1428571428571</ele><time>2026-04-06T08:16:41.985Z</time></trkpt><trkpt lat="42.9333742" lon="12.2252746"><ele>445.71428571428567</ele><time>2026-04-06T08:16:48Z</time></trkpt><trkpt lat="42.933362" lon="12.2253727"><ele>445.2857142857143</ele><time>2026-04-06T08:16:54Z</time></trkpt><trkpt lat="42.9333492" lon="12.2254593"><ele>444.8571428571429</ele><time>2026-04-06T08:16:59Z</time></trkpt><trkpt lat="42.9333334" lon="12.2255486"><ele>444.4285714285714</ele><time>2026-04-06T08:17:04.001Z</time></trkpt><trkpt lat="42.9333221" lon="12.2256383"><ele>444.0</ele><time>2026-04-06T08:17:09.008Z</time></trkpt><trkpt lat="42.9333153" lon="12.2257281"><ele>443.0</ele><time>2026-04-06T08:17:14.001Z</time></trkpt><trkpt lat="42.9332996" lon="12.2258266"><ele>442.0</ele><time>2026-04-06T08:17:20.001Z</time></trkpt><trkpt lat="42.9332784" lon="12.2259092"><ele>441.0</ele><time>2026-04-06T08:17:25.001Z</time></trkpt><trkpt lat="42.9332664" lon="12.225994"><ele>440.0</ele><time>2026-04-06T08:17:30.001Z</time></trkpt><trkpt lat="42.9332377" lon="12.2260871"><ele>439.0</ele><time>2026-04-06T08:17:36.001Z</time></trkpt><trkpt lat="42.9332168" lon="12.2261717"><ele>438.0</ele><time>2026-04-06T08:17:41.001Z</time></trkpt><trkpt lat="42.9331984" lon="12.2262594"><ele>437.0</ele><time>2026-04-06T08:17:46Z</time></trkpt><trkpt lat="42.9331836" lon="12.2263441"><ele>437.0</ele><time>2026-04-06T08:17:51.01Z</time></trkpt><trkpt lat="42.9331634" lon="12.2264265"><ele>437.0</ele><time>2026-04-06T08:17:56Z</time></trkpt><trkpt lat="42.9331395" lon="12.2265107"><ele>437.0</ele><time>2026-04-06T08:18:01.029Z</time></trkpt><trkpt lat="42.9330881" lon="12.2265712"><ele>437.0</ele><time>2026-04-06T08:18:05.999Z</time></trkpt><trkpt lat="42.9330205" lon="12.2265979"><ele>437.0</ele><time>2026-04-06T08:18:11Z</time></trkpt><trkpt lat="42.9329535" lon="12.2266151"><ele>437.0</ele><time>2026-04-06T08:18:16Z</time></trkpt><trkpt lat="42.9328868" lon="12.2266107"><ele>437.0</ele><time>2026-04-06T08:18:21.001Z</time></trkpt><trkpt lat="42.9328233" lon="12.2265914"><ele>437.0</ele><time>2026-04-06T08:18:25.999Z</time></trkpt><trkpt lat="42.9327757" lon="12.2265283"><ele>437.0</ele><time>2026-04-06T08:18:31Z</time></trkpt><trkpt lat="42.9327209" lon="12.2264691"><ele>437.0</ele><time>2026-04-06T08:18:37Z</time></trkpt><trkpt lat="42.9326597" lon="12.2264311"><ele>437.0</ele><time>2026-04-06T08:18:43.999Z</time></trkpt><trkpt lat="42.9326063" lon="12.2263761"><ele>437.0</ele><time>2026-04-06T08:18:49.999Z</time></trkpt><trkpt lat="42.9325542" lon="12.2262997"><ele>437.0</ele><time>2026-04-06T08:18:56.999Z</time></trkpt><trkpt lat="42.9324977" lon="12.2262542"><ele>437.0</ele><time>2026-04-06T08:19:04Z</time></trkpt><trkpt lat="42.9324253" lon="12.2262515"><ele>436.2857142857143</ele><time>2026-04-06T08:19:10Z</time></trkpt><trkpt lat="42.9323607" lon="12.2262589"><ele>435.5714285714286</ele><time>2026-04-06T08:19:15Z</time></trkpt><trkpt lat="42.9322837" lon="12.2262702"><ele>434.8571428571429</ele><time>2026-04-06T08:19:21.009Z</time></trkpt><trkpt lat="42.9322198" lon="12.2262679"><ele>434.1428571428571</ele><time>2026-04-06T08:19:25.999Z</time></trkpt><trkpt lat="42.9321566" lon="12.2263243"><ele>433.42857142857144</ele><time>2026-04-06T08:19:32Z</time></trkpt><trkpt lat="42.9321035" lon="12.2263899"><ele>432.7142857142857</ele><time>2026-04-06T08:19:37.932Z</time></trkpt><trkpt lat="42.9320753" lon="12.226482"><ele>432.0</ele><time>2026-04-06T08:19:43.99Z</time></trkpt><trkpt lat="42.9320693" lon="12.2265757"><ele>430.57142857142856</ele><time>2026-04-06T08:19:49Z</time></trkpt><trkpt lat="42.9320757" lon="12.2266638"><ele>429.1428571428571</ele><time>2026-04-06T08:19:54.003Z</time></trkpt><trkpt lat="42.9320928" lon="12.2267561"><ele>427.7142857142857</ele><time>2026-04-06T08:19:59.001Z</time></trkpt><trkpt lat="42.9321117" lon="12.2268498"><ele>426.2857142857143</ele><time>2026-04-06T08:20:04Z</time></trkpt><trkpt lat="42.9321228" lon="12.2269356"><ele>424.8571428571429</ele><time>2026-04-06T08:20:09Z</time></trkpt><trkpt lat="42.9321358" lon="12.2270287"><ele>423.42857142857144</ele><time>2026-04-06T08:20:14.032Z</time></trkpt><trkpt lat="42.9321573" lon="12.2271139"><ele>422.0</ele><time>2026-04-06T08:20:18.97Z</time></trkpt><trkpt lat="42.9321776" lon="12.2272145"><ele>422.0</ele><time>2026-04-06T08:20:25.001Z</time></trkpt><trkpt lat="42.9321942" lon="12.2273004"><ele>422.0</ele><time>2026-04-06T08:20:29.999Z</time></trkpt><trkpt lat="42.9321974" lon="12.2273866"><ele>422.0</ele><time>2026-04-06T08:20:35.005Z</time></trkpt><trkpt lat="42.9322289" lon="12.227471"><ele>422.0</ele><time>2026-04-06T08:20:40.999Z</time></trkpt><trkpt lat="42.9322185" lon="12.2275703"><ele>422.0</ele><time>2026-04-06T08:20:47Z</time></trkpt><trkpt lat="42.9322093" lon="12.2276581"><ele>422.0</ele><time>2026-04-06T08:20:51.999Z</time></trkpt><trkpt lat="42.9321868" lon="12.2277502"><ele>422.0</ele><time>2026-04-06T08:20:56.999Z</time></trkpt><trkpt lat="42.9321672" lon="12.2278446"><ele>420.7142857142857</ele><time>2026-04-06T08:21:03Z</time></trkpt><trkpt lat="42.9321385" lon="12.2279319"><ele>419.42857142857144</ele><time>2026-04-06T08:21:09Z</time></trkpt><trkpt lat="42.9321073" lon="12.2280199"><ele>418.1428571428571</ele><time>2026-04-06T08:21:14.929Z</time></trkpt><trkpt lat="42.9320696" lon="12.2280969"><ele>416.8571428571429</ele><time>2026-04-06T08:21:19.999Z</time></trkpt><trkpt lat="42.9320309" lon="12.2281714"><ele>415.57142857142856</ele><time>2026-04-06T08:21:24.999Z</time></trkpt><trkpt lat="42.9319894" lon="12.2282456"><ele>414.2857142857143</ele><time>2026-04-06T08:21:30.009Z</time></trkpt><trkpt lat="42.9319336" lon="12.2282974"><ele>413.0</ele><time>2026-04-06T08:21:35Z</time></trkpt><trkpt lat="42.9318595" lon="12.2283149"><ele>411.14285714285717</ele><time>2026-04-06T08:21:40Z</time></trkpt><trkpt lat="42.9317962" lon="12.2283383"><ele>409.2857142857143</ele><time>2026-04-06T08:21:45Z</time></trkpt><trkpt lat="42.9317322" lon="12.2283543"><ele>407.42857142857144</ele><time>2026-04-06T08:21:49.001Z</time></trkpt><trkpt lat="42.9316719" lon="12.2283808"><ele>405.57142857142856</ele><time>2026-04-06T08:21:54.003Z</time></trkpt><trkpt lat="42.9316076" lon="12.2284187"><ele>403.7142857142857</ele><time>2026-04-06T08:21:59Z</time></trkpt><trkpt lat="42.9315397" lon="12.2284392"><ele>401.8571428571429</ele><time>2026-04-06T08:22:04Z</time></trkpt><trkpt lat="42.9314726" lon="12.2284706"><ele>400.0</ele><time>2026-04-06T08:22:08.999Z</time></trkpt><trkpt lat="42.9314044" lon="12.2284901"><ele>400.00000000000006</ele><time>2026-04-06T08:22:13.926Z</time></trkpt><trkpt lat="42.9313379" lon="12.2284995"><ele>400.0</ele><time>2026-04-06T08:22:19Z</time></trkpt><trkpt lat="42.9312681" lon="12.2285089"><ele>400.0</ele><time>2026-04-06T08:22:23.999Z</time></trkpt><trkpt lat="42.9312008" lon="12.2285139"><ele>400.0</ele><time>2026-04-06T08:22:28.863Z</time></trkpt><trkpt lat="42.9311282" lon="12.228506"><ele>400.0</ele><time>2026-04-06T08:22:34.001Z</time></trkpt><trkpt lat="42.9310618" lon="12.2285099"><ele>400.00000000000006</ele><time>2026-04-06T08:22:39.029Z</time></trkpt><trkpt lat="42.9309961" lon="12.2285163"><ele>400.0</ele><time>2026-04-06T08:22:44.03Z</time></trkpt><trkpt lat="42.9309222" lon="12.2285138"><ele>398.28571428571433</ele><time>2026-04-06T08:22:49.999Z</time></trkpt><trkpt lat="42.9308693" lon="12.2284667"><ele>396.57142857142856</ele><time>2026-04-06T08:23:11.933Z</time></trkpt><trkpt lat="42.9308036" lon="12.2284651"><ele>394.8571428571429</ele><time>2026-04-06T08:23:16.951Z</time></trkpt><trkpt lat="42.9307496" lon="12.2284207"><ele>393.14285714285717</ele><time>2026-04-06T08:23:24Z</time></trkpt><trkpt lat="42.9307121" lon="12.2284976"><ele>391.42857142857144</ele><time>2026-04-06T08:24:28Z</time></trkpt><trkpt lat="42.9306566" lon="12.2285391"><ele>389.7142857142857</ele><time>2026-04-06T08:24:32.001Z</time></trkpt><trkpt lat="42.9305928" lon="12.228581"><ele>388.0</ele><time>2026-04-06T08:24:40Z</time></trkpt><trkpt lat="42.9305613" lon="12.2286737"><ele>388.0</ele><time>2026-04-06T08:24:46.963Z</time></trkpt><trkpt lat="42.9305597" lon="12.2287727"><ele>388.0</ele><time>2026-04-06T08:24:53Z</time></trkpt><trkpt lat="42.9305721" lon="12.228868"><ele>388.0</ele><time>2026-04-06T08:24:57.999Z</time></trkpt><trkpt lat="42.9305657" lon="12.2289589"><ele>388.0</ele><time>2026-04-06T08:25:02.999Z</time></trkpt><trkpt lat="42.9305711" lon="12.2290533"><ele>388.0</ele><time>2026-04-06T08:25:07.988Z</time></trkpt><trkpt lat="42.9305742" lon="12.2291438"><ele>388.0</ele><time>2026-04-06T08:25:13.001Z</time></trkpt><trkpt lat="42.9305772" lon="12.2292466"><ele>388.0</ele><time>2026-04-06T08:25:18.999Z</time></trkpt><trkpt lat="42.9305688" lon="12.2293348"><ele>388.0</ele><time>2026-04-06T08:25:24.001Z</time></trkpt><trkpt lat="42.9305048" lon="12.2293575"><ele>388.0</ele><time>2026-04-06T08:25:29Z</time></trkpt><trkpt lat="42.9304906" lon="12.2292306"><ele>388.0</ele><time>2026-04-06T08:25:51Z</time></trkpt><trkpt lat="42.9304845" lon="12.22914"><ele>388.0</ele><time>2026-04-06T08:25:56Z</time></trkpt><trkpt lat="42.9304581" lon="12.2290479"><ele>388.0</ele><time>2026-04-06T08:26:03.001Z</time></trkpt><trkpt lat="42.9305109" lon="12.2289811"><ele>388.0</ele><time>2026-04-06T08:26:10.999Z</time></trkpt><trkpt lat="42.9305088" lon="12.2288906"><ele>388.0</ele><time>2026-04-06T08:26:16.972Z</time></trkpt><trkpt lat="42.9304627" lon="12.2288278"><ele>388.0</ele><time>2026-04-06T08:26:21.971Z</time></trkpt><trkpt lat="42.9304019" lon="12.2287793"><ele>388.0</ele><time>2026-04-06T08:26:28.999Z</time></trkpt><trkpt lat="42.9303727" lon="12.2286962"><ele>388.0</ele><time>2026-04-06T08:26:36.001Z</time></trkpt><trkpt lat="42.9303819" lon="12.2286091"><ele>388.0</ele><time>2026-04-06T08:26:54.015Z</time></trkpt><trkpt lat="42.9303569" lon="12.2285265"><ele>388.0</ele><time>2026-04-06T08:26:59.005Z</time></trkpt><trkpt lat="42.9303707" lon="12.2284371"><ele>388.0</ele><time>2026-04-06T08:27:07.999Z</time></trkpt><trkpt lat="42.930355" lon="12.2283482"><ele>388.0</ele><time>2026-04-06T08:27:13.999Z</time></trkpt><trkpt lat="42.9303462" lon="12.2282537"><ele>388.0</ele><time>2026-04-06T08:27:22Z</time></trkpt><trkpt lat="42.9303495" lon="12.2281672"><ele>388.0</ele><time>2026-04-06T08:27:28.999Z</time></trkpt><trkpt lat="42.9303941" lon="12.2280953"><ele>388.0</ele><time>2026-04-06T08:27:34.934Z</time></trkpt><trkpt lat="42.930457" lon="12.2280567"><ele>388.0</ele><time>2026-04-06T08:27:40.008Z</time></trkpt><trkpt lat="42.9305203" lon="12.2280482"><ele>388.0</ele><time>2026-04-06T08:27:45.999Z</time></trkpt><trkpt lat="42.9305747" lon="12.2279981"><ele>388.0</ele><time>2026-04-06T08:27:52.999Z</time></trkpt><trkpt lat="42.9306164" lon="12.2279266"><ele>388.0</ele><time>2026-04-06T08:28:04.999Z</time></trkpt><trkpt lat="42.9306258" lon="12.227831"><ele>387.85714285714283</ele><time>2026-04-06T08:28:19Z</time></trkpt><trkpt lat="42.930645" lon="12.2277317"><ele>387.7142857142857</ele><time>2026-04-06T08:28:23.999Z</time></trkpt><trkpt lat="42.9306613" lon="12.2276417"><ele>387.57142857142856</ele><time>2026-04-06T08:28:29.012Z</time></trkpt><trkpt lat="42.9306531" lon="12.2275548"><ele>387.42857142857144</ele><time>2026-04-06T08:28:34.998Z</time></trkpt><trkpt lat="42.9306054" lon="12.2274827"><ele>387.28571428571433</ele><time>2026-04-06T08:28:41Z</time></trkpt><trkpt lat="42.9305648" lon="12.2274081"><ele>387.14285714285717</ele><time>2026-04-06T08:28:46.999Z</time></trkpt><trkpt lat="42.9305247" lon="12.2273378"><ele>387.0</ele><time>2026-04-06T08:28:52.998Z</time></trkpt><trkpt lat="42.930481" lon="12.2272729"><ele>387.8571428571429</ele><time>2026-04-06T08:28:58.939Z</time></trkpt><trkpt lat="42.9304395" lon="12.2271955"><ele>388.7142857142857</ele><time>2026-04-06T08:29:06.006Z</time></trkpt><trkpt lat="42.9304099" lon="12.2271012"><ele>389.57142857142856</ele><time>2026-04-06T08:31:18.999Z</time></trkpt><trkpt lat="42.9303848" lon="12.2270198"><ele>390.42857142857144</ele><time>2026-04-06T08:31:30Z</time></trkpt><trkpt lat="42.9303747" lon="12.2269199"><ele>391.2857142857143</ele><time>2026-04-06T08:32:11.998Z</time></trkpt><trkpt lat="42.9303932" lon="12.2268337"><ele>392.14285714285717</ele><time>2026-04-06T08:32:18.998Z</time></trkpt><trkpt lat="42.930408" lon="12.2267496"><ele>393.0</ele><time>2026-04-06T08:32:26.722Z</time></trkpt><trkpt lat="42.9304257" lon="12.2266573"><ele>393.00000000000006</ele><time>2026-04-06T08:32:34.998Z</time></trkpt><trkpt lat="42.9304132" lon="12.2265597"><ele>393.0</ele><time>2026-04-06T08:32:44Z</time></trkpt><trkpt lat="42.930416" lon="12.2264715"><ele>393.0</ele><time>2026-04-06T08:32:50.999Z</time></trkpt><trkpt lat="42.9304062" lon="12.2263775"><ele>393.0</ele><time>2026-04-06T08:32:57.985Z</time></trkpt><trkpt lat="42.9304048" lon="12.2262828"><ele>393.0</ele><time>2026-04-06T08:33:04Z</time></trkpt><trkpt lat="42.9303829" lon="12.2262017"><ele>393.00000000000006</ele><time>2026-04-06T08:33:10.998Z</time></trkpt><trkpt lat="42.9303256" lon="12.2262523"><ele>393.0</ele><time>2026-04-06T08:33:17.998Z</time></trkpt><trkpt lat="42.9302625" lon="12.2262054"><ele>391.00000000000006</ele><time>2026-04-06T08:33:27.999Z</time></trkpt><trkpt lat="42.9303307" lon="12.2262364"><ele>389.0</ele><time>2026-04-06T08:34:30.999Z</time></trkpt><trkpt lat="42.9303907" lon="12.2262001"><ele>387.0</ele><time>2026-04-06T08:34:39.928Z</time></trkpt><trkpt lat="42.9304401" lon="12.226136"><ele>385.0</ele><time>2026-04-06T08:34:52.999Z</time></trkpt><trkpt lat="42.9304525" lon="12.2260496"><ele>383.0</ele><time>2026-04-06T08:35:03Z</time></trkpt><trkpt lat="42.9305118" lon="12.2259898"><ele>381.00000000000006</ele><time>2026-04-06T08:35:10.947Z</time></trkpt><trkpt lat="42.9305746" lon="12.2259484"><ele>379.0</ele><time>2026-04-06T08:35:16.998Z</time></trkpt><trkpt lat="42.9306399" lon="12.2259113"><ele>379.00000000000006</ele><time>2026-04-06T08:35:22.074Z</time></trkpt><trkpt lat="42.9306952" lon="12.2258633"><ele>379.0</ele><time>2026-04-06T08:35:34.998Z</time></trkpt><trkpt lat="42.9307537" lon="12.2258223"><ele>379.0</ele><time>2026-04-06T08:35:40.066Z</time></trkpt><trkpt lat="42.9308459" lon="12.2257891"><ele>379.0</ele><time>2026-04-06T08:36:07.928Z</time></trkpt><trkpt lat="42.9309119" lon="12.225786"><ele>379.0</ele><time>2026-04-06T08:36:12.999Z</time></trkpt><trkpt lat="42.9309657" lon="12.225739"><ele>379.00000000000006</ele><time>2026-04-06T08:36:15.999Z</time></trkpt><trkpt lat="42.931012" lon="12.225679"><ele>379.0</ele><time>2026-04-06T08:36:20.998Z</time></trkpt><trkpt lat="42.931014" lon="12.2255887"><ele>383.28571428571433</ele><time>2026-04-06T08:36:25.998Z</time></trkpt><trkpt lat="42.9309901" lon="12.2254938"><ele>387.57142857142856</ele><time>2026-04-06T08:36:30.999Z</time></trkpt><trkpt lat="42.9309423" lon="12.2254254"><ele>391.8571428571429</ele><time>2026-04-06T08:36:35.998Z</time></trkpt><trkpt lat="42.9309035" lon="12.225343"><ele>396.14285714285717</ele><time>2026-04-06T08:36:41.998Z</time></trkpt><trkpt lat="42.9309348" lon="12.2252475"><ele>400.42857142857144</ele><time>2026-04-06T08:36:48.051Z</time></trkpt><trkpt lat="42.931" lon="12.2252069"><ele>404.7142857142857</ele><time>2026-04-06T08:36:56.081Z</time></trkpt><trkpt lat="42.9310395" lon="12.2251257"><ele>409.0</ele><time>2026-04-06T08:37:05.008Z</time></trkpt><trkpt lat="42.9310711" lon="12.2250469"><ele>409.0</ele><time>2026-04-06T08:37:13.009Z</time></trkpt><trkpt lat="42.9311014" lon="12.2249613"><ele>409.0</ele><time>2026-04-06T08:37:22.053Z</time></trkpt><trkpt lat="42.9311464" lon="12.2248931"><ele>409.0</ele><time>2026-04-06T08:37:30.053Z</time></trkpt><trkpt lat="42.9311424" lon="12.2248055"><ele>409.0</ele><time>2026-04-06T08:37:39.998Z</time></trkpt><trkpt lat="42.9311318" lon="12.2247113"><ele>409.0</ele><time>2026-04-06T08:37:47.056Z</time></trkpt><trkpt lat="42.9311428" lon="12.2246089"><ele>409.0</ele><time>2026-04-06T08:37:53.998Z</time></trkpt><trkpt lat="42.931178" lon="12.2245266"><ele>409.0</ele><time>2026-04-06T08:38:00.083Z</time></trkpt><trkpt lat="42.9311969" lon="12.2244338"><ele>408.1428571428571</ele><time>2026-04-06T08:38:07.998Z</time></trkpt><trkpt lat="42.9311954" lon="12.2243412"><ele>407.28571428571433</ele><time>2026-04-06T08:38:13.999Z</time></trkpt><trkpt lat="42.9311775" lon="12.2242434"><ele>406.42857142857144</ele><time>2026-04-06T08:38:20.997Z</time></trkpt><trkpt lat="42.9311892" lon="12.2241528"><ele>405.57142857142856</ele><time>2026-04-06T08:38:27.998Z</time></trkpt><trkpt lat="42.9312447" lon="12.2240994"><ele>404.71428571428567</ele><time>2026-04-06T08:38:34.998Z</time></trkpt><trkpt lat="42.9312832" lon="12.2240214"><ele>403.8571428571429</ele><time>2026-04-06T08:38:41.064Z</time></trkpt><trkpt lat="42.9312608" lon="12.2239345"><ele>403.0</ele><time>2026-04-06T08:38:50.061Z</time></trkpt><trkpt lat="42.9311948" lon="12.2239223"><ele>403.0</ele><time>2026-04-06T08:38:55.997Z</time></trkpt><trkpt lat="42.9311238" lon="12.223917"><ele>403.0</ele><time>2026-04-06T08:39:00.998Z</time></trkpt><trkpt lat="42.931051" lon="12.2239406"><ele>403.0</ele><time>2026-04-06T08:39:06.999Z</time></trkpt><trkpt lat="42.9309884" lon="12.2239856"><ele>403.0</ele><time>2026-04-06T08:39:12.004Z</time></trkpt><trkpt lat="42.9309213" lon="12.2240174"><ele>403.0</ele><time>2026-04-06T08:39:19.055Z</time></trkpt><trkpt lat="42.9308574" lon="12.2240083"><ele>403.0</ele><time>2026-04-06T08:39:30.998Z</time></trkpt><trkpt lat="42.9307939" lon="12.2240333"><ele>403.0</ele><time>2026-04-06T08:39:41.999Z</time></trkpt><trkpt lat="42.9307233" lon="12.2240372"><ele>402.0</ele><time>2026-04-06T08:39:47.998Z</time></trkpt><trkpt lat="42.9306616" lon="12.2240177"><ele>401.0</ele><time>2026-04-06T08:39:54.997Z</time></trkpt><trkpt lat="42.9305963" lon="12.2239804"><ele>400.0</ele><time>2026-04-06T08:40:02.084Z</time></trkpt><trkpt lat="42.9305353" lon="12.2239552"><ele>399.0</ele><time>2026-04-06T08:40:09.081Z</time></trkpt><trkpt lat="42.9304788" lon="12.223917"><ele>398.0</ele><time>2026-04-06T08:40:16.998Z</time></trkpt><trkpt lat="42.9304238" lon="12.2238712"><ele>397.0</ele><time>2026-04-06T08:40:24.072Z</time></trkpt><trkpt lat="42.9303754" lon="12.2238067"><ele>396.0</ele><time>2026-04-06T08:40:31.998Z</time></trkpt><trkpt lat="42.930329" lon="12.2237344"><ele>396.0</ele><time>2026-04-06T08:40:39.085Z</time></trkpt><trkpt lat="42.9302644" lon="12.2237186"><ele>396.0</ele><time>2026-04-06T08:40:45.998Z</time></trkpt><trkpt lat="42.9301973" lon="12.223684"><ele>396.0</ele><time>2026-04-06T08:40:52.998Z</time></trkpt><trkpt lat="42.9301342" lon="12.2236583"><ele>396.0</ele><time>2026-04-06T08:40:59.989Z</time></trkpt><trkpt lat="42.93007" lon="12.2236173"><ele>396.0</ele><time>2026-04-06T08:41:06.981Z</time></trkpt><trkpt lat="42.9299995" lon="12.2235979"><ele>396.0</ele><time>2026-04-06T08:41:13.998Z</time></trkpt><trkpt lat="42.9299292" lon="12.2235875"><ele>396.0</ele><time>2026-04-06T08:41:20.06Z</time></trkpt><trkpt lat="42.929865" lon="12.2235648"><ele>393.5714285714286</ele><time>2026-04-06T08:41:26.071Z</time></trkpt><trkpt lat="42.9298176" lon="12.2235038"><ele>391.1428571428571</ele><time>2026-04-06T08:41:32.998Z</time></trkpt><trkpt lat="42.9297756" lon="12.2234178"><ele>388.7142857142857</ele><time>2026-04-06T08:41:42.064Z</time></trkpt><trkpt lat="42.9297421" lon="12.2233432"><ele>386.28571428571433</ele><time>2026-04-06T08:41:51.05Z</time></trkpt><trkpt lat="42.9297137" lon="12.2232504"><ele>383.8571428571429</ele><time>2026-04-06T08:41:57.998Z</time></trkpt><trkpt lat="42.9296843" lon="12.2231732"><ele>381.42857142857144</ele><time>2026-04-06T08:42:03.998Z</time></trkpt><trkpt lat="42.929648" lon="12.2230958"><ele>379.0</ele><time>2026-04-06T08:42:09.997Z</time></trkpt><trkpt lat="42.9296298" lon="12.2230069"><ele>379.00000000000006</ele><time>2026-04-06T08:42:16.998Z</time></trkpt><trkpt lat="42.929598" lon="12.2229285"><ele>379.0</ele><time>2026-04-06T08:42:23.061Z</time></trkpt><trkpt lat="42.9295554" lon="12.222864"><ele>379.0</ele><time>2026-04-06T08:42:29.998Z</time></trkpt><trkpt lat="42.9295092" lon="12.2227997"><ele>379.0</ele><time>2026-04-06T08:42:38.1Z</time></trkpt><trkpt lat="42.9294542" lon="12.2227406"><ele>379.0</ele><time>2026-04-06T08:42:45.057Z</time></trkpt><trkpt lat="42.9294" lon="12.2226878"><ele>379.00000000000006</ele><time>2026-04-06T08:42:50.997Z</time></trkpt><trkpt lat="42.9293396" lon="12.2226535"><ele>379.0</ele><time>2026-04-06T08:42:57.999Z</time></trkpt><trkpt lat="42.9292831" lon="12.2225948"><ele>379.00000000000006</ele><time>2026-04-06T08:43:05.998Z</time></trkpt><trkpt lat="42.9292517" lon="12.2225111"><ele>379.0</ele><time>2026-04-06T08:43:13.998Z</time></trkpt><trkpt lat="42.9292037" lon="12.2224535"><ele>379.0</ele><time>2026-04-06T08:43:24.078Z</time></trkpt><trkpt lat="42.9292172" lon="12.2223543"><ele>379.0</ele><time>2026-04-06T08:43:40.057Z</time></trkpt><trkpt lat="42.9292387" lon="12.2222586"><ele>379.0</ele><time>2026-04-06T08:43:48.024Z</time></trkpt><trkpt lat="42.9292628" lon="12.2221728"><ele>379.00000000000006</ele><time>2026-04-06T08:43:55.998Z</time></trkpt><trkpt lat="42.9292497" lon="12.2220874"><ele>379.0</ele><time>2026-04-06T08:44:19.028Z</time></trkpt><trkpt lat="42.9292859" lon="12.2219976"><ele>376.7142857142857</ele><time>2026-04-06T08:44:26.997Z</time></trkpt><trkpt lat="42.9293479" lon="12.2219714"><ele>374.42857142857144</ele><time>2026-04-06T08:44:30.942Z</time></trkpt><trkpt lat="42.9293976" lon="12.221915"><ele>372.1428571428571</ele><time>2026-04-06T08:44:37.06Z</time></trkpt><trkpt lat="42.929449" lon="12.2218561"><ele>369.8571428571429</ele><time>2026-04-06T08:44:45.064Z</time></trkpt><trkpt lat="42.9294734" lon="12.2217726"><ele>367.57142857142856</ele><time>2026-04-06T08:44:54.998Z</time></trkpt><trkpt lat="42.9295161" lon="12.2217075"><ele>365.2857142857143</ele><time>2026-04-06T08:45:01.068Z</time></trkpt><trkpt lat="42.9295782" lon="12.2216805"><ele>363.0</ele><time>2026-04-06T08:45:09.068Z</time></trkpt><trkpt lat="42.9296027" lon="12.221598"><ele>362.99999999999994</ele><time>2026-04-06T08:45:16.059Z</time></trkpt><trkpt lat="42.9296505" lon="12.2215361"><ele>363.0</ele><time>2026-04-06T08:45:30.061Z</time></trkpt><trkpt lat="42.9297142" lon="12.2214872"><ele>363.0</ele><time>2026-04-06T08:45:40.067Z</time></trkpt><trkpt lat="42.9297482" lon="12.2214117"><ele>363.0</ele><time>2026-04-06T08:45:47.064Z</time></trkpt><trkpt lat="42.9297639" lon="12.2213227"><ele>363.0</ele><time>2026-04-06T08:45:55.064Z</time></trkpt><trkpt lat="42.92976" lon="12.2212343"><ele>362.99999999999994</ele><time>2026-04-06T08:46:05.998Z</time></trkpt><trkpt lat="42.9296999" lon="12.2211964"><ele>363.0</ele><time>2026-04-06T08:46:22.997Z</time></trkpt><trkpt lat="42.9296324" lon="12.2212066"><ele>363.57142857142856</ele><time>2026-04-06T08:46:35.072Z</time></trkpt><trkpt lat="42.9295688" lon="12.2211962"><ele>364.1428571428571</ele><time>2026-04-06T08:46:41.998Z</time></trkpt><trkpt lat="42.9294971" lon="12.2211783"><ele>364.71428571428567</ele><time>2026-04-06T08:46:51.091Z</time></trkpt><trkpt lat="42.9294283" lon="12.221157"><ele>365.2857142857143</ele><time>2026-04-06T08:46:57.997Z</time></trkpt><trkpt lat="42.9293675" lon="12.2211188"><ele>365.8571428571429</ele><time>2026-04-06T08:47:05.065Z</time></trkpt><trkpt lat="42.9293094" lon="12.2210797"><ele>366.4285714285714</ele><time>2026-04-06T08:47:11.997Z</time></trkpt><trkpt lat="42.9292456" lon="12.2210489"><ele>367.0</ele><time>2026-04-06T08:47:21.068Z</time></trkpt><trkpt lat="42.929193" lon="12.2209961"><ele>365.0</ele><time>2026-04-06T08:47:27.997Z</time></trkpt><trkpt lat="42.9291414" lon="12.2209458"><ele>363.0</ele><time>2026-04-06T08:47:34.997Z</time></trkpt><trkpt lat="42.929082" lon="12.220917"><ele>361.0</ele><time>2026-04-06T08:47:40.968Z</time></trkpt><trkpt lat="42.9290193" lon="12.2208877"><ele>359.0</ele><time>2026-04-06T08:47:47.997Z</time></trkpt><trkpt lat="42.9289556" lon="12.2208394"><ele>357.0</ele><time>2026-04-06T08:47:54.998Z</time></trkpt><trkpt lat="42.9288928" lon="12.220826"><ele>355.0</ele><time>2026-04-06T08:48:02.068Z</time></trkpt><trkpt lat="42.9288268" lon="12.2207811"><ele>353.0</ele><time>2026-04-06T08:48:09.063Z</time></trkpt><trkpt lat="42.9287638" lon="12.2207329"><ele>353.0</ele><time>2026-04-06T08:48:15.998Z</time></trkpt><trkpt lat="42.9287035" lon="12.2206934"><ele>353.0</ele><time>2026-04-06T08:48:22.998Z</time></trkpt><trkpt lat="42.9286404" lon="12.2206452"><ele>353.0</ele><time>2026-04-06T08:48:29.998Z</time></trkpt><trkpt lat="42.9285842" lon="12.2205929"><ele>353.0</ele><time>2026-04-06T08:48:36.009Z</time></trkpt><trkpt lat="42.9285152" lon="12.2205707"><ele>353.0</ele><time>2026-04-06T08:48:43.998Z</time></trkpt><trkpt lat="42.9284571" lon="12.2205225"><ele>353.0</ele><time>2026-04-06T08:48:51.998Z</time></trkpt><trkpt lat="42.928397" lon="12.2204635"><ele>353.0</ele><time>2026-04-06T08:49:00.725Z</time></trkpt><trkpt lat="42.9283555" lon="12.2203871"><ele>352.57142857142856</ele><time>2026-04-06T08:49:07.998Z</time></trkpt><trkpt lat="42.928362" lon="12.2202896"><ele>352.14285714285717</ele><time>2026-04-06T08:49:13.997Z</time></trkpt><trkpt lat="42.9283644" lon="12.2201978"><ele>351.7142857142857</ele><time>2026-04-06T08:49:20.063Z</time></trkpt><trkpt lat="42.9284171" lon="12.2201289"><ele>351.2857142857143</ele><time>2026-04-06T08:49:26.997Z</time></trkpt><trkpt lat="42.928476" lon="12.2200914"><ele>350.8571428571429</ele><time>2026-04-06T08:49:33.998Z</time></trkpt><trkpt lat="42.9285305" lon="12.2200474"><ele>350.42857142857144</ele><time>2026-04-06T08:49:40.998Z</time></trkpt><trkpt lat="42.928566" lon="12.2199699"><ele>350.0</ele><time>2026-04-06T08:49:49.998Z</time></trkpt><trkpt lat="42.9286107" lon="12.2198913"><ele>353.14285714285717</ele><time>2026-04-06T08:49:57.998Z</time></trkpt><trkpt lat="42.9286639" lon="12.2198331"><ele>356.2857142857143</ele><time>2026-04-06T08:50:04.998Z</time></trkpt><trkpt lat="42.9286772" lon="12.2197396"><ele>359.42857142857144</ele><time>2026-04-06T08:50:13.997Z</time></trkpt><trkpt lat="42.9286138" lon="12.219725"><ele>362.57142857142856</ele><time>2026-04-06T08:50:27.998Z</time></trkpt><trkpt lat="42.9285435" lon="12.2197217"><ele>365.7142857142857</ele><time>2026-04-06T08:50:32.968Z</time></trkpt><trkpt lat="42.9284807" lon="12.2197656"><ele>368.8571428571429</ele><time>2026-04-06T08:50:40Z</time></trkpt><trkpt lat="42.9284089" lon="12.2197672"><ele>372.0</ele><time>2026-04-06T08:50:46.996Z</time></trkpt><trkpt lat="42.9283382" lon="12.2197603"><ele>372.14285714285717</ele><time>2026-04-06T08:50:54.996Z</time></trkpt><trkpt lat="42.9283043" lon="12.2196858"><ele>372.2857142857143</ele><time>2026-04-06T08:51:03.996Z</time></trkpt><trkpt lat="42.9282435" lon="12.2197357"><ele>372.42857142857144</ele><time>2026-04-06T08:52:59.996Z</time></trkpt><trkpt lat="42.9281752" lon="12.2197709"><ele>372.57142857142856</ele><time>2026-04-06T08:53:06.997Z</time></trkpt><trkpt lat="42.928102" lon="12.2197823"><ele>372.7142857142857</ele><time>2026-04-06T08:53:13.002Z</time></trkpt><trkpt lat="42.9280346" lon="12.2197811"><ele>372.8571428571429</ele><time>2026-04-06T08:53:19.996Z</time></trkpt><trkpt lat="42.9279586" lon="12.2197746"><ele>373.0</ele><time>2026-04-06T08:53:27.997Z</time></trkpt><trkpt lat="42.9278951" lon="12.2197794"><ele>373.0</ele><time>2026-04-06T08:53:36.908Z</time></trkpt><trkpt lat="42.9278263" lon="12.2197868"><ele>373.0</ele><time>2026-04-06T08:53:43.056Z</time></trkpt><trkpt lat="42.9277619" lon="12.2197778"><ele>373.0</ele><time>2026-04-06T08:53:49.061Z</time></trkpt><trkpt lat="42.9277031" lon="12.2197276"><ele>373.0</ele><time>2026-04-06T08:53:55.021Z</time></trkpt><trkpt lat="42.9276478" lon="12.2196603"><ele>373.0</ele><time>2026-04-06T08:54:02.998Z</time></trkpt><trkpt lat="42.9276214" lon="12.2195682"><ele>373.0</ele><time>2026-04-06T08:54:07.997Z</time></trkpt><trkpt lat="42.9275903" lon="12.2194832"><ele>373.0</ele><time>2026-04-06T08:54:45.996Z</time></trkpt><trkpt lat="42.9275527" lon="12.2193995"><ele>374.7142857142857</ele><time>2026-04-06T08:54:51.998Z</time></trkpt><trkpt lat="42.9275367" lon="12.2193092"><ele>376.42857142857144</ele><time>2026-04-06T08:54:56.997Z</time></trkpt><trkpt lat="42.9275424" lon="12.2192202"><ele>378.1428571428571</ele><time>2026-04-06T08:55:01.997Z</time></trkpt><trkpt lat="42.9275371" lon="12.2191239"><ele>379.8571428571429</ele><time>2026-04-06T08:55:07.996Z</time></trkpt><trkpt lat="42.9275462" lon="12.2190297"><ele>381.57142857142856</ele><time>2026-04-06T08:55:15.111Z</time></trkpt><trkpt lat="42.9275569" lon="12.2188942"><ele>383.2857142857143</ele><time>2026-04-06T08:55:40.998Z</time></trkpt><trkpt lat="42.9275679" lon="12.2188081"><ele>385.0</ele><time>2026-04-06T08:55:45.998Z</time></trkpt><trkpt lat="42.9275475" lon="12.218713"><ele>385.0</ele><time>2026-04-06T08:55:55.061Z</time></trkpt><trkpt lat="42.9275718" lon="12.2186314"><ele>385.0</ele><time>2026-04-06T08:56:03.042Z</time></trkpt><trkpt lat="42.9275917" lon="12.2185374"><ele>385.0</ele><time>2026-04-06T08:56:12.067Z</time></trkpt><trkpt lat="42.9276091" lon="12.2184415"><ele>385.0</ele><time>2026-04-06T08:56:19.996Z</time></trkpt><trkpt lat="42.9276245" lon="12.2183542"><ele>385.0</ele><time>2026-04-06T08:56:41.997Z</time></trkpt><trkpt lat="42.927638" lon="12.2182554"><ele>385.0</ele><time>2026-04-06T08:56:47.996Z</time></trkpt><trkpt lat="42.927643" lon="12.2181602"><ele>385.0</ele><time>2026-04-06T08:56:53.069Z</time></trkpt><trkpt lat="42.9276678" lon="12.2180809"><ele>383.42857142857144</ele><time>2026-04-06T08:57:02.996Z</time></trkpt><trkpt lat="42.9277027" lon="12.2179956"><ele>381.8571428571429</ele><time>2026-04-06T08:57:09.046Z</time></trkpt><trkpt lat="42.9277097" lon="12.2179082"><ele>380.2857142857143</ele><time>2026-04-06T08:57:14.996Z</time></trkpt><trkpt lat="42.9276778" lon="12.2178337"><ele>378.7142857142857</ele><time>2026-04-06T08:57:22.043Z</time></trkpt><trkpt lat="42.9276458" lon="12.2177462"><ele>377.14285714285717</ele><time>2026-04-06T08:57:30.077Z</time></trkpt><trkpt lat="42.9276288" lon="12.2176539"><ele>375.57142857142856</ele><time>2026-04-06T08:57:35.996Z</time></trkpt><trkpt lat="42.9276085" lon="12.2175616"><ele>374.0</ele><time>2026-04-06T08:57:41.997Z</time></trkpt><trkpt lat="42.9275656" lon="12.2174887"><ele>368.4285714285714</ele><time>2026-04-06T08:57:48.996Z</time></trkpt><trkpt lat="42.9275112" lon="12.2174443"><ele>362.8571428571429</ele><time>2026-04-06T08:57:56.997Z</time></trkpt><trkpt lat="42.9274457" lon="12.2174237"><ele>357.2857142857143</ele><time>2026-04-06T08:58:02.996Z</time></trkpt><trkpt lat="42.9273766" lon="12.217391"><ele>351.71428571428567</ele><time>2026-04-06T08:58:10.996Z</time></trkpt><trkpt lat="42.927345" lon="12.2173088"><ele>346.1428571428571</ele><time>2026-04-06T08:58:15.996Z</time></trkpt><trkpt lat="42.9273118" lon="12.2172349"><ele>340.57142857142856</ele><time>2026-04-06T08:58:20.996Z</time></trkpt><trkpt lat="42.9272742" lon="12.2171558"><ele>335.0</ele><time>2026-04-06T08:58:26.986Z</time></trkpt><trkpt lat="42.9272394" lon="12.2172309"><ele>334.99999999999994</ele><time>2026-04-06T08:58:43.074Z</time></trkpt><trkpt lat="42.9272867" lon="12.2172915"><ele>335.0</ele><time>2026-04-06T08:58:47.996Z</time></trkpt><trkpt lat="42.9273451" lon="12.2173402"><ele>335.0</ele><time>2026-04-06T08:58:53.996Z</time></trkpt><trkpt lat="42.9272929" lon="12.2172878"><ele>335.0</ele><time>2026-04-06T08:59:01.996Z</time></trkpt><trkpt lat="42.9272293" lon="12.2172788"><ele>335.0</ele><time>2026-04-06T08:59:23.996Z</time></trkpt><trkpt lat="42.9272517" lon="12.2171887"><ele>334.99999999999994</ele><time>2026-04-06T08:59:32.997Z</time></trkpt><trkpt lat="42.9272253" lon="12.2170988"><ele>335.0</ele><time>2026-04-06T08:59:37.997Z</time></trkpt><trkpt lat="42.9272876" lon="12.2171442"><ele>333.71428571428567</ele><time>2026-04-06T09:00:06.996Z</time></trkpt><trkpt lat="42.9272784" lon="12.2170518"><ele>332.42857142857144</ele><time>2026-04-06T09:01:33.043Z</time></trkpt><trkpt lat="42.9272937" lon="12.2169651"><ele>331.1428571428571</ele><time>2026-04-06T09:01:41.072Z</time></trkpt><trkpt lat="42.9273273" lon="12.2168879"><ele>329.85714285714283</ele><time>2026-04-06T09:01:50.971Z</time></trkpt><trkpt lat="42.9273899" lon="12.216853"><ele>328.57142857142856</ele><time>2026-04-06T09:02:03.06Z</time></trkpt><trkpt lat="42.9274594" lon="12.2168382"><ele>327.2857142857143</ele><time>2026-04-06T09:02:12.065Z</time></trkpt><trkpt lat="42.9275274" lon="12.2168242"><ele>326.0</ele><time>2026-04-06T09:02:20.996Z</time></trkpt><trkpt lat="42.927586" lon="12.2167813"><ele>328.42857142857144</ele><time>2026-04-06T09:02:27.046Z</time></trkpt><trkpt lat="42.9276472" lon="12.2167325"><ele>330.85714285714283</ele><time>2026-04-06T09:02:36.051Z</time></trkpt><trkpt lat="42.9276926" lon="12.2166596"><ele>333.2857142857143</ele><time>2026-04-06T09:02:41.005Z</time></trkpt><trkpt lat="42.9277556" lon="12.2166271"><ele>335.7142857142857</ele><time>2026-04-06T09:02:45.997Z</time></trkpt><trkpt lat="42.9278116" lon="12.2165688"><ele>338.1428571428571</ele><time>2026-04-06T09:02:54.996Z</time></trkpt><trkpt lat="42.9278769" lon="12.2165521"><ele>340.57142857142856</ele><time>2026-04-06T09:03:03.997Z</time></trkpt><trkpt lat="42.9279359" lon="12.2165088"><ele>343.0</ele><time>2026-04-06T09:03:10.996Z</time></trkpt><trkpt lat="42.9279646" lon="12.2164236"><ele>343.0</ele><time>2026-04-06T09:03:17.997Z</time></trkpt><trkpt lat="42.9279926" lon="12.216345"><ele>343.0</ele><time>2026-04-06T09:03:25.997Z</time></trkpt><trkpt lat="42.9279891" lon="12.2162418"><ele>343.0</ele><time>2026-04-06T09:03:42.996Z</time></trkpt><trkpt lat="42.927972" lon="12.2161536"><ele>343.0</ele><time>2026-04-06T09:03:48.996Z</time></trkpt><trkpt lat="42.9279598" lon="12.2160648"><ele>343.0</ele><time>2026-04-06T09:03:54.997Z</time></trkpt><trkpt lat="42.9280034" lon="12.2159992"><ele>343.0</ele><time>2026-04-06T09:04:05.997Z</time></trkpt><trkpt lat="42.9280423" lon="12.2159201"><ele>343.0</ele><time>2026-04-06T09:04:11.996Z</time></trkpt><trkpt lat="42.9280799" lon="12.2158494"><ele>343.0</ele><time>2026-04-06T09:04:18.052Z</time></trkpt><trkpt lat="42.9280824" lon="12.2157621"><ele>343.0</ele><time>2026-04-06T09:04:24.066Z</time></trkpt><trkpt lat="42.9280687" lon="12.2156762"><ele>343.0</ele><time>2026-04-06T09:04:30.997Z</time></trkpt><trkpt lat="42.9280492" lon="12.2155919"><ele>343.0</ele><time>2026-04-06T09:04:40.059Z</time></trkpt><trkpt lat="42.9280539" lon="12.215501"><ele>343.0</ele><time>2026-04-06T09:04:45.963Z</time></trkpt><trkpt lat="42.9280325" lon="12.2154164"><ele>343.0</ele><time>2026-04-06T09:04:54.001Z</time></trkpt><trkpt lat="42.9280412" lon="12.2153274"><ele>343.0</ele><time>2026-04-06T09:05:00.962Z</time></trkpt><trkpt lat="42.9280621" lon="12.2152366"><ele>344.14285714285717</ele><time>2026-04-06T09:05:07.081Z</time></trkpt><trkpt lat="42.9280962" lon="12.2151643"><ele>345.2857142857143</ele><time>2026-04-06T09:05:12.995Z</time></trkpt><trkpt lat="42.9281027" lon="12.215068"><ele>346.42857142857144</ele><time>2026-04-06T09:05:20.062Z</time></trkpt><trkpt lat="42.9280506" lon="12.2150097"><ele>347.57142857142856</ele><time>2026-04-06T09:05:30.069Z</time></trkpt><trkpt lat="42.9279911" lon="12.2149739"><ele>348.7142857142857</ele><time>2026-04-06T09:05:41.996Z</time></trkpt><trkpt lat="42.9279323" lon="12.2149332"><ele>349.8571428571429</ele><time>2026-04-06T09:05:45.996Z</time></trkpt><trkpt lat="42.9278744" lon="12.2148696"><ele>351.0</ele><time>2026-04-06T09:05:50.995Z</time></trkpt><trkpt lat="42.927811" lon="12.2148562"><ele>353.5</ele><time>2026-04-06T09:05:59.996Z</time></trkpt><trkpt lat="42.9277607" lon="12.2147454"><ele>356.0</ele><time>2026-04-06T09:06:07.565Z</time></trkpt><trkpt lat="42.9276841" lon="12.2147697"><ele>358.5</ele><time>2026-04-06T09:06:42.996Z</time></trkpt><trkpt lat="42.9276215" lon="12.2148181"><ele>361.0</ele><time>2026-04-06T09:06:48.996Z</time></trkpt><trkpt lat="42.9275568" lon="12.2148524"><ele>363.5</ele><time>2026-04-06T09:06:56.995Z</time></trkpt><trkpt lat="42.9274955" lon="12.2148974"><ele>366.0</ele><time>2026-04-06T09:07:05.006Z</time></trkpt><trkpt lat="42.9274278" lon="12.2149113"><ele>361.2857142857143</ele><time>2026-04-06T09:07:13.996Z</time></trkpt><trkpt lat="42.9273558" lon="12.2149148"><ele>356.57142857142856</ele><time>2026-04-06T09:07:22.996Z</time></trkpt><trkpt lat="42.927291" lon="12.2149015"><ele>351.8571428571429</ele><time>2026-04-06T09:07:30.995Z</time></trkpt><trkpt lat="42.927225" lon="12.2149292"><ele>347.1428571428571</ele><time>2026-04-06T09:07:40.065Z</time></trkpt><trkpt lat="42.92716" lon="12.2149518"><ele>342.4285714285714</ele><time>2026-04-06T09:07:51.056Z</time></trkpt><trkpt lat="42.9270989" lon="12.2149915"><ele>337.7142857142857</ele><time>2026-04-06T09:07:59.996Z</time></trkpt><trkpt lat="42.9270353" lon="12.2150091"><ele>333.0</ele><time>2026-04-06T09:08:08.942Z</time></trkpt><trkpt lat="42.9269718" lon="12.2150471"><ele>333.0</ele><time>2026-04-06T09:08:16.97Z</time></trkpt><trkpt lat="42.9269053" lon="12.2150666"><ele>333.0</ele><time>2026-04-06T09:08:27.065Z</time></trkpt><trkpt lat="42.9268319" lon="12.2150663"><ele>333.0</ele><time>2026-04-06T09:08:34.997Z</time></trkpt><trkpt lat="42.9267685" lon="12.2150981"><ele>333.0</ele><time>2026-04-06T09:08:42.995Z</time></trkpt><trkpt lat="42.9267081" lon="12.2150661"><ele>333.0</ele><time>2026-04-06T09:08:51.997Z</time></trkpt><trkpt lat="42.9266622" lon="12.2151269"><ele>333.0</ele><time>2026-04-06T09:09:57.996Z</time></trkpt><trkpt lat="42.9266143" lon="12.2151854"><ele>333.0</ele><time>2026-04-06T09:10:06.996Z</time></trkpt><trkpt lat="42.9265558" lon="12.2152386"><ele>331.2857142857143</ele><time>2026-04-06T09:10:12.98Z</time></trkpt><trkpt lat="42.9264929" lon="12.2152812"><ele>329.57142857142856</ele><time>2026-04-06T09:10:18.927Z</time></trkpt><trkpt lat="42.9264261" lon="12.2153255"><ele>327.85714285714283</ele><time>2026-04-06T09:10:25.017Z</time></trkpt><trkpt lat="42.9263711" lon="12.215381"><ele>326.1428571428571</ele><time>2026-04-06T09:10:30.995Z</time></trkpt><trkpt lat="42.9263648" lon="12.2154698"><ele>324.42857142857144</ele><time>2026-04-06T09:10:37.95Z</time></trkpt><trkpt lat="42.9263794" lon="12.2153859"><ele>322.71428571428567</ele><time>2026-04-06T09:11:40.004Z</time></trkpt><trkpt lat="42.9264212" lon="12.2153172"><ele>321.0</ele><time>2026-04-06T09:11:45.995Z</time></trkpt><trkpt lat="42.9264683" lon="12.2152561"><ele>320.99999999999994</ele><time>2026-04-06T09:11:50.996Z</time></trkpt><trkpt lat="42.9265265" lon="12.2151937"><ele>321.0</ele><time>2026-04-06T09:11:56.929Z</time></trkpt><trkpt lat="42.9265891" lon="12.2151489"><ele>321.0</ele><time>2026-04-06T09:12:04.997Z</time></trkpt><trkpt lat="42.926661" lon="12.2151326"><ele>321.0</ele><time>2026-04-06T09:12:11.995Z</time></trkpt><trkpt lat="42.9267104" lon="12.2150793"><ele>321.0</ele><time>2026-04-06T09:12:16.997Z</time></trkpt><trkpt lat="42.9267525" lon="12.2150084"><ele>320.99999999999994</ele><time>2026-04-06T09:12:22.069Z</time></trkpt><trkpt lat="42.926808" lon="12.214941"><ele>321.0</ele><time>2026-04-06T09:12:30.052Z</time></trkpt><trkpt lat="42.9268785" lon="12.2149075"><ele>322.71428571428567</ele><time>2026-04-06T09:12:37.065Z</time></trkpt><trkpt lat="42.9269306" lon="12.2148499"><ele>324.42857142857144</ele><time>2026-04-06T09:12:44.068Z</time></trkpt><trkpt lat="42.9269923" lon="12.2148202"><ele>326.1428571428571</ele><time>2026-04-06T09:12:50.074Z</time></trkpt><trkpt lat="42.9270578" lon="12.2148361"><ele>327.85714285714283</ele><time>2026-04-06T09:12:54.996Z</time></trkpt><trkpt lat="42.9271323" lon="12.2148334"><ele>329.57142857142856</ele><time>2026-04-06T09:12:59.995Z</time></trkpt><trkpt lat="42.9271952" lon="12.2148027"><ele>331.2857142857143</ele><time>2026-04-06T09:13:04.064Z</time></trkpt><trkpt lat="42.9272682" lon="12.2147865"><ele>333.0</ele><time>2026-04-06T09:13:12.043Z</time></trkpt><trkpt lat="42.9273279" lon="12.2147572"><ele>334.14285714285717</ele><time>2026-04-06T09:13:18.995Z</time></trkpt><trkpt lat="42.9273906" lon="12.2147454"><ele>335.2857142857143</ele><time>2026-04-06T09:13:29.07Z</time></trkpt><trkpt lat="42.9274452" lon="12.2146984"><ele>336.42857142857144</ele><time>2026-04-06T09:13:43.996Z</time></trkpt><trkpt lat="42.9274975" lon="12.2146348"><ele>337.57142857142856</ele><time>2026-04-06T09:13:53.05Z</time></trkpt><trkpt lat="42.9275642" lon="12.2146157"><ele>338.7142857142857</ele><time>2026-04-06T09:13:58.995Z</time></trkpt><trkpt lat="42.9276313" lon="12.2146164"><ele>339.85714285714283</ele><time>2026-04-06T09:14:03.995Z</time></trkpt><trkpt lat="42.9276957" lon="12.2145911"><ele>341.0</ele><time>2026-04-06T09:14:10.047Z</time></trkpt><trkpt lat="42.9277517" lon="12.214636"><ele>344.57142857142856</ele><time>2026-04-06T09:15:39.996Z</time></trkpt><trkpt lat="42.9278112" lon="12.2145858"><ele>348.14285714285717</ele><time>2026-04-06T09:15:48.996Z</time></trkpt><trkpt lat="42.9278214" lon="12.214486"><ele>351.7142857142857</ele><time>2026-04-06T09:15:54.997Z</time></trkpt><trkpt lat="42.927783" lon="12.2143965"><ele>355.2857142857143</ele><time>2026-04-06T09:16:00.997Z</time></trkpt><trkpt lat="42.9277452" lon="12.214324"><ele>358.8571428571429</ele><time>2026-04-06T09:16:09.995Z</time></trkpt><trkpt lat="42.9276968" lon="12.2142426"><ele>362.42857142857144</ele><time>2026-04-06T09:16:47.995Z</time></trkpt><trkpt lat="42.9277247" lon="12.2141605"><ele>366.0</ele><time>2026-04-06T09:16:59.965Z</time></trkpt><trkpt lat="42.9277164" lon="12.2140605"><ele>364.14285714285717</ele><time>2026-04-06T09:17:07.055Z</time></trkpt><trkpt lat="42.9276744" lon="12.21398"><ele>362.28571428571433</ele><time>2026-04-06T09:17:11.995Z</time></trkpt><trkpt lat="42.9276561" lon="12.2138947"><ele>360.42857142857144</ele><time>2026-04-06T09:17:17.054Z</time></trkpt><trkpt lat="42.9276257" lon="12.2138104"><ele>358.57142857142856</ele><time>2026-04-06T09:17:23.061Z</time></trkpt><trkpt lat="42.9276054" lon="12.2137133"><ele>356.7142857142857</ele><time>2026-04-06T09:17:31.045Z</time></trkpt><trkpt lat="42.9275739" lon="12.2136203"><ele>354.85714285714283</ele><time>2026-04-06T09:17:37.065Z</time></trkpt><trkpt lat="42.9275502" lon="12.2135181"><ele>353.0</ele><time>2026-04-06T09:17:43.994Z</time></trkpt><trkpt lat="42.9275451" lon="12.2134221"><ele>353.0</ele><time>2026-04-06T09:17:49.995Z</time></trkpt><trkpt lat="42.9275453" lon="12.2133242"><ele>353.0</ele><time>2026-04-06T09:17:55.994Z</time></trkpt><trkpt lat="42.9275235" lon="12.2132308"><ele>353.0</ele><time>2026-04-06T09:18:01.995Z</time></trkpt><trkpt lat="42.9275241" lon="12.213134"><ele>353.0</ele><time>2026-04-06T09:18:16.001Z</time></trkpt><trkpt lat="42.9274497" lon="12.2131786"><ele>353.0</ele><time>2026-04-06T09:18:28.995Z</time></trkpt><trkpt lat="42.927398" lon="12.213229"><ele>353.0</ele><time>2026-04-06T09:18:35.994Z</time></trkpt><trkpt lat="42.927296" lon="12.2133117"><ele>353.0</ele><time>2026-04-06T09:18:43.995Z</time></trkpt><trkpt lat="42.927232" lon="12.2133528"><ele>353.0</ele><time>2026-04-06T09:18:48.015Z</time></trkpt><trkpt lat="42.9271651" lon="12.2133379"><ele>353.0</ele><time>2026-04-06T09:18:53.995Z</time></trkpt><trkpt lat="42.9270997" lon="12.2133391"><ele>353.0</ele><time>2026-04-06T09:18:59.065Z</time></trkpt><trkpt lat="42.9270388" lon="12.2133076"><ele>353.0</ele><time>2026-04-06T09:19:05.996Z</time></trkpt><trkpt lat="42.9269783" lon="12.213266"><ele>353.0</ele><time>2026-04-06T09:19:23.995Z</time></trkpt><trkpt lat="42.9269225" lon="12.2132219"><ele>353.0</ele><time>2026-04-06T09:19:30.995Z</time></trkpt><trkpt lat="42.9268549" lon="12.2132249"><ele>353.0</ele><time>2026-04-06T09:19:37.995Z</time></trkpt><trkpt lat="42.9267841" lon="12.2132422"><ele>353.0</ele><time>2026-04-06T09:19:45.996Z</time></trkpt><trkpt lat="42.9267314" lon="12.2132949"><ele>353.0</ele><time>2026-04-06T09:19:51.912Z</time></trkpt><trkpt lat="42.9266647" lon="12.2132991"><ele>353.0</ele><time>2026-04-06T09:19:57.972Z</time></trkpt><trkpt lat="42.9266007" lon="12.2132995"><ele>353.0</ele><time>2026-04-06T09:20:03.905Z</time></trkpt><trkpt lat="42.9265367" lon="12.2132934"><ele>353.0</ele><time>2026-04-06T09:20:09.994Z</time></trkpt><trkpt lat="42.9264729" lon="12.2133098"><ele>353.0</ele><time>2026-04-06T09:20:15.923Z</time></trkpt><trkpt lat="42.9264091" lon="12.2133562"><ele>352.2857142857143</ele><time>2026-04-06T09:20:23.994Z</time></trkpt><trkpt lat="42.926348" lon="12.2133982"><ele>351.5714285714286</ele><time>2026-04-06T09:20:29.995Z</time></trkpt><trkpt lat="42.926282" lon="12.2134408"><ele>350.8571428571429</ele><time>2026-04-06T09:20:35.995Z</time></trkpt><trkpt lat="42.9262177" lon="12.2134595"><ele>350.1428571428571</ele><time>2026-04-06T09:20:41.995Z</time></trkpt><trkpt lat="42.9261575" lon="12.2135078"><ele>349.42857142857144</ele><time>2026-04-06T09:20:52.088Z</time></trkpt><trkpt lat="42.9260917" lon="12.2135169"><ele>348.7142857142857</ele><time>2026-04-06T09:20:58.914Z</time></trkpt><trkpt lat="42.9260356" lon="12.2135636"><ele>348.0</ele><time>2026-04-06T09:21:04.994Z</time></trkpt><trkpt lat="42.925982" lon="12.2136314"><ele>348.0</ele><time>2026-04-06T09:21:09.994Z</time></trkpt><trkpt lat="42.9259152" lon="12.2136698"><ele>348.0</ele><time>2026-04-06T09:21:15.994Z</time></trkpt><trkpt lat="42.9259369" lon="12.2135852"><ele>348.0</ele><time>2026-04-06T09:21:28.995Z</time></trkpt><trkpt lat="42.9259235" lon="12.2134983"><ele>348.0</ele><time>2026-04-06T09:21:35.922Z</time></trkpt><trkpt lat="42.9259396" lon="12.2135883"><ele>348.0</ele><time>2026-04-06T09:21:43.994Z</time></trkpt><trkpt lat="42.9258959" lon="12.2136608"><ele>348.0</ele><time>2026-04-06T09:21:51.994Z</time></trkpt><trkpt lat="42.9258389" lon="12.2137169"><ele>348.0</ele><time>2026-04-06T09:22:15.01Z</time></trkpt><trkpt lat="42.925825" lon="12.2138066"><ele>345.57142857142856</ele><time>2026-04-06T09:22:20.985Z</time></trkpt><trkpt lat="42.9258235" lon="12.2138955"><ele>343.14285714285717</ele><time>2026-04-06T09:22:29.994Z</time></trkpt><trkpt lat="42.9258392" lon="12.2139869"><ele>340.7142857142857</ele><time>2026-04-06T09:22:41.001Z</time></trkpt><trkpt lat="42.9258442" lon="12.2140827"><ele>338.2857142857143</ele><time>2026-04-06T09:22:50.995Z</time></trkpt><trkpt lat="42.9258166" lon="12.21416"><ele>335.85714285714283</ele><time>2026-04-06T09:22:59.994Z</time></trkpt><trkpt lat="42.9257967" lon="12.2142436"><ele>333.42857142857144</ele><time>2026-04-06T09:23:08Z</time></trkpt><trkpt lat="42.925823" lon="12.2143241"><ele>331.0</ele><time>2026-04-06T09:23:18.987Z</time></trkpt><trkpt lat="42.92577" lon="12.2143911"><ele>328.57142857142856</ele><time>2026-04-06T09:23:39.995Z</time></trkpt><trkpt lat="42.9257272" lon="12.2144713"><ele>326.1428571428571</ele><time>2026-04-06T09:23:47.008Z</time></trkpt><trkpt lat="42.925671" lon="12.214533"><ele>323.71428571428567</ele><time>2026-04-06T09:23:53.995Z</time></trkpt><trkpt lat="42.9256282" lon="12.2146014"><ele>321.2857142857143</ele><time>2026-04-06T09:24:01.996Z</time></trkpt><trkpt lat="42.9255671" lon="12.2146416"><ele>318.85714285714283</ele><time>2026-04-06T09:24:10.994Z</time></trkpt><trkpt lat="42.9255836" lon="12.2147295"><ele>316.4285714285714</ele><time>2026-04-06T09:24:31.995Z</time></trkpt><trkpt lat="42.9256383" lon="12.2147768"><ele>314.0</ele><time>2026-04-06T09:24:42.994Z</time></trkpt><trkpt lat="42.9257042" lon="12.2148047"><ele>314.0</ele><time>2026-04-06T09:24:52.995Z</time></trkpt><trkpt lat="42.925763" lon="12.2147736"><ele>314.0</ele><time>2026-04-06T09:25:14.994Z</time></trkpt><trkpt lat="42.9258273" lon="12.2147749"><ele>314.0</ele><time>2026-04-06T09:25:27.995Z</time></trkpt><trkpt lat="42.925835" lon="12.2148603"><ele>314.0</ele><time>2026-04-06T09:25:35.994Z</time></trkpt><trkpt lat="42.9258184" lon="12.2149433"><ele>314.0</ele><time>2026-04-06T09:25:55.064Z</time></trkpt><trkpt lat="42.9257938" lon="12.215026"><ele>314.0</ele><time>2026-04-06T09:26:07.995Z</time></trkpt><trkpt lat="42.9257491" lon="12.2149623"><ele>314.0</ele><time>2026-04-06T09:26:44.084Z</time></trkpt><trkpt lat="42.9257801" lon="12.2148832"><ele>314.0</ele><time>2026-04-06T09:26:52.994Z</time></trkpt><trkpt lat="42.9258077" lon="12.2149609"><ele>312.0</ele><time>2026-04-06T09:30:42.06Z</time></trkpt><trkpt lat="42.9257651" lon="12.2151005"><ele>310.0</ele><time>2026-04-06T09:31:01.994Z</time></trkpt><trkpt lat="42.9256577" lon="12.2151691"><ele>308.0</ele><time>2026-04-06T09:31:37.994Z</time></trkpt><trkpt lat="42.9255924" lon="12.2151645"><ele>306.0</ele><time>2026-04-06T09:32:16.993Z</time></trkpt><trkpt lat="42.9255292" lon="12.2151881"><ele>304.0</ele><time>2026-04-06T09:32:41.995Z</time></trkpt><trkpt lat="42.9254608" lon="12.2151715"><ele>302.0</ele><time>2026-04-06T09:32:50.994Z</time></trkpt><trkpt lat="42.9253836" lon="12.2151988"><ele>302.00000000000006</ele><time>2026-04-06T09:33:07.994Z</time></trkpt><trkpt lat="42.9253462" lon="12.2151268"><ele>302.0</ele><time>2026-04-06T09:33:20.065Z</time></trkpt><trkpt lat="42.9253903" lon="12.2150466"><ele>302.0</ele><time>2026-04-06T09:33:44.058Z</time></trkpt><trkpt lat="42.9254302" lon="12.2151212"><ele>302.0</ele><time>2026-04-06T09:34:39.994Z</time></trkpt><trkpt lat="42.9254516" lon="12.2152051"><ele>302.0</ele><time>2026-04-06T09:34:53.993Z</time></trkpt><trkpt lat="42.9253999" lon="12.2152555"><ele>302.00000000000006</ele><time>2026-04-06T09:35:04.995Z</time></trkpt><trkpt lat="42.9253431" lon="12.2153014"><ele>302.0</ele><time>2026-04-06T09:35:17.995Z</time></trkpt><trkpt lat="42.9252838" lon="12.215337"><ele>302.00000000000006</ele><time>2026-04-06T09:35:34.993Z</time></trkpt><trkpt lat="42.925271" lon="12.2152394"><ele>302.0</ele><time>2026-04-06T09:35:53.993Z</time></trkpt><trkpt lat="42.9253499" lon="12.2152423"><ele>302.0</ele><time>2026-04-06T09:36:07.002Z</time></trkpt><trkpt lat="42.9253688" lon="12.2151589"><ele>302.0</ele><time>2026-04-06T09:36:20.993Z</time></trkpt><trkpt lat="42.9254288" lon="12.2151296"><ele>302.0</ele><time>2026-04-06T09:36:33.995Z</time></trkpt><trkpt lat="42.9254911" lon="12.2151108"><ele>302.00000000000006</ele><time>2026-04-06T09:36:40.064Z</time></trkpt><trkpt lat="42.925547" lon="12.2150596"><ele>302.0</ele><time>2026-04-06T09:36:57.069Z</time></trkpt><trkpt lat="42.9255954" lon="12.2149905"><ele>302.00000000000006</ele><time>2026-04-06T09:38:01.042Z</time></trkpt><trkpt lat="42.9256641" lon="12.2150284"><ele>302.0</ele><time>2026-04-06T09:38:27.929Z</time></trkpt><trkpt lat="42.9257278" lon="12.2150199"><ele>302.0</ele><time>2026-04-06T09:38:33.993Z</time></trkpt><trkpt lat="42.9257822" lon="12.2150697"><ele>302.0</ele><time>2026-04-06T09:38:48.048Z</time></trkpt><trkpt lat="42.9257812" lon="12.2149825"><ele>302.0</ele><time>2026-04-06T09:39:05.994Z</time></trkpt><trkpt lat="42.9258046" lon="12.2148957"><ele>302.00000000000006</ele><time>2026-04-06T09:39:14.995Z</time></trkpt><trkpt lat="42.9257398" lon="12.2149004"><ele>302.0</ele><time>2026-04-06T09:39:50.054Z</time></trkpt><trkpt lat="42.9256696" lon="12.2148999"><ele>302.00000000000006</ele><time>2026-04-06T09:40:05.063Z</time></trkpt><trkpt lat="42.9256082" lon="12.2148591"><ele>302.0</ele><time>2026-04-06T09:40:23.994Z</time></trkpt><trkpt lat="42.9255644" lon="12.2147929"><ele>302.0</ele><time>2026-04-06T09:40:37.068Z</time></trkpt><trkpt lat="42.9255029" lon="12.2148145"><ele>302.0</ele><time>2026-04-06T09:40:47.993Z</time></trkpt><trkpt lat="42.9254629" lon="12.2147406"><ele>302.0</ele><time>2026-04-06T09:40:57.994Z</time></trkpt><trkpt lat="42.9253758" lon="12.2147551"><ele>302.00000000000006</ele><time>2026-04-06T09:41:25.06Z</time></trkpt><trkpt lat="42.9254104" lon="12.2146714"><ele>302.0</ele><time>2026-04-06T09:41:46.993Z</time></trkpt><trkpt lat="42.9254711" lon="12.2146371"><ele>303.7142857142857</ele><time>2026-04-06T09:41:55.004Z</time></trkpt><trkpt lat="42.9255336" lon="12.2146589"><ele>305.42857142857144</ele><time>2026-04-06T09:42:03.065Z</time></trkpt><trkpt lat="42.9255896" lon="12.2146033"><ele>307.1428571428571</ele><time>2026-04-06T09:43:31.037Z</time></trkpt><trkpt lat="42.9256417" lon="12.2145488"><ele>308.8571428571429</ele><time>2026-04-06T09:43:42.993Z</time></trkpt><trkpt lat="42.9256743" lon="12.214464"><ele>310.57142857142856</ele><time>2026-04-06T09:43:51.992Z</time></trkpt><trkpt lat="42.9257181" lon="12.214387"><ele>312.2857142857143</ele><time>2026-04-06T09:44:00.009Z</time></trkpt><trkpt lat="42.9257671" lon="12.2143213"><ele>314.0</ele><time>2026-04-06T09:44:08.901Z</time></trkpt><trkpt lat="42.9257976" lon="12.2142353"><ele>313.99999999999994</ele><time>2026-04-06T09:44:14.993Z</time></trkpt><trkpt lat="42.9257761" lon="12.2141543"><ele>314.0</ele><time>2026-04-06T09:44:29.048Z</time></trkpt><trkpt lat="42.9258151" lon="12.2140843"><ele>314.0</ele><time>2026-04-06T09:44:44.051Z</time></trkpt><trkpt lat="42.9258207" lon="12.2139928"><ele>314.0</ele><time>2026-04-06T09:44:59.07Z</time></trkpt><trkpt lat="42.9258217" lon="12.2138986"><ele>314.0</ele><time>2026-04-06T09:45:09.992Z</time></trkpt><trkpt lat="42.9258303" lon="12.213803"><ele>313.99999999999994</ele><time>2026-04-06T09:45:17.992Z</time></trkpt><trkpt lat="42.9258539" lon="12.2137216"><ele>314.0</ele><time>2026-04-06T09:45:24.063Z</time></trkpt><trkpt lat="42.9258661" lon="12.2136364"><ele>316.4285714285714</ele><time>2026-04-06T09:49:18.993Z</time></trkpt><trkpt lat="42.9258277" lon="12.2135624"><ele>318.85714285714283</ele><time>2026-04-06T09:50:14.993Z</time></trkpt><trkpt lat="42.9258057" lon="12.2134804"><ele>321.2857142857143</ele><time>2026-04-06T09:50:29.993Z</time></trkpt><trkpt lat="42.9257776" lon="12.2133958"><ele>323.71428571428567</ele><time>2026-04-06T09:50:39.992Z</time></trkpt><trkpt lat="42.9257617" lon="12.2133079"><ele>326.1428571428571</ele><time>2026-04-06T09:50:49.062Z</time></trkpt><trkpt lat="42.9257787" lon="12.2132153"><ele>328.57142857142856</ele><time>2026-04-06T09:50:55.993Z</time></trkpt><trkpt lat="42.9258026" lon="12.2131301"><ele>331.0</ele><time>2026-04-06T09:51:06.994Z</time></trkpt><trkpt lat="42.9258026" lon="12.2130433"><ele>333.2857142857143</ele><time>2026-04-06T09:51:11.992Z</time></trkpt><trkpt lat="42.9257829" lon="12.2129504"><ele>335.57142857142856</ele><time>2026-04-06T09:51:21.067Z</time></trkpt><trkpt lat="42.9257737" lon="12.2128602"><ele>337.8571428571429</ele><time>2026-04-06T09:51:29.056Z</time></trkpt><trkpt lat="42.9257796" lon="12.2127651"><ele>340.1428571428571</ele><time>2026-04-06T09:51:36.067Z</time></trkpt><trkpt lat="42.9257716" lon="12.2126741"><ele>342.4285714285714</ele><time>2026-04-06T09:51:44.039Z</time></trkpt><trkpt lat="42.9257556" lon="12.2125841"><ele>344.7142857142857</ele><time>2026-04-06T09:51:50.949Z</time></trkpt><trkpt lat="42.9257156" lon="12.2125115"><ele>347.0</ele><time>2026-04-06T09:51:57.993Z</time></trkpt><trkpt lat="42.9256648" lon="12.2124542"><ele>347.0</ele><time>2026-04-06T09:52:02.994Z</time></trkpt><trkpt lat="42.9255768" lon="12.212435"><ele>347.0</ele><time>2026-04-06T09:52:29.965Z</time></trkpt><trkpt lat="42.9255093" lon="12.2124506"><ele>347.0</ele><time>2026-04-06T09:52:34.039Z</time></trkpt><trkpt lat="42.92544" lon="12.2124689"><ele>347.0</ele><time>2026-04-06T09:52:41.046Z</time></trkpt><trkpt lat="42.9253984" lon="12.2123964"><ele>347.0</ele><time>2026-04-06T09:52:53.993Z</time></trkpt><trkpt lat="42.9253346" lon="12.2123333"><ele>347.0</ele><time>2026-04-06T09:53:09.992Z</time></trkpt><trkpt lat="42.9252696" lon="12.2123001"><ele>347.0</ele><time>2026-04-06T09:53:15.992Z</time></trkpt><trkpt lat="42.9251935" lon="12.2123005"><ele>346.7142857142857</ele><time>2026-04-06T09:53:21.994Z</time></trkpt><trkpt lat="42.925131" lon="12.2122757"><ele>346.4285714285714</ele><time>2026-04-06T09:53:27.031Z</time></trkpt><trkpt lat="42.9250621" lon="12.2122792"><ele>346.1428571428571</ele><time>2026-04-06T09:53:42.061Z</time></trkpt><trkpt lat="42.9250126" lon="12.2122219"><ele>345.8571428571429</ele><time>2026-04-06T09:53:47.992Z</time></trkpt><trkpt lat="42.9249565" lon="12.2121723"><ele>345.57142857142856</ele><time>2026-04-06T09:53:54.992Z</time></trkpt><trkpt lat="42.9248973" lon="12.212131"><ele>345.2857142857143</ele><time>2026-04-06T09:53:59.066Z</time></trkpt><trkpt lat="42.9248393" lon="12.2120898"><ele>345.0</ele><time>2026-04-06T09:54:06.055Z</time></trkpt><trkpt lat="42.9247746" lon="12.2120851"><ele>345.0</ele><time>2026-04-06T09:54:14.067Z</time></trkpt><trkpt lat="42.9247073" lon="12.2120969"><ele>345.0</ele><time>2026-04-06T09:54:21.049Z</time></trkpt><trkpt lat="42.9246349" lon="12.2120677"><ele>345.0</ele><time>2026-04-06T09:54:29.074Z</time></trkpt><trkpt lat="42.9245737" lon="12.2120159"><ele>345.0</ele><time>2026-04-06T09:54:43.993Z</time></trkpt><trkpt lat="42.9245113" lon="12.2120003"><ele>345.0</ele><time>2026-04-06T09:54:48.993Z</time></trkpt><trkpt lat="42.924443" lon="12.2119666"><ele>345.0</ele><time>2026-04-06T09:54:54.038Z</time></trkpt><trkpt lat="42.9243709" lon="12.211974"><ele>345.0</ele><time>2026-04-06T09:55:00.008Z</time></trkpt><trkpt lat="42.9243041" lon="12.2119812"><ele>345.0</ele><time>2026-04-06T09:55:04.994Z</time></trkpt><trkpt lat="42.9242312" lon="12.2119769"><ele>345.0</ele><time>2026-04-06T09:55:12.065Z</time></trkpt><trkpt lat="42.9241735" lon="12.2119407"><ele>345.0</ele><time>2026-04-06T09:55:18.039Z</time></trkpt><trkpt lat="42.9241105" lon="12.2119149"><ele>345.0</ele><time>2026-04-06T09:55:27.069Z</time></trkpt><trkpt lat="42.9240492" lon="12.211881"><ele>345.0</ele><time>2026-04-06T09:55:36.048Z</time></trkpt><trkpt lat="42.9239882" lon="12.2118394"><ele>345.0</ele><time>2026-04-06T09:55:42.071Z</time></trkpt><trkpt lat="42.9239225" lon="12.2118282"><ele>345.0</ele><time>2026-04-06T09:55:46.992Z</time></trkpt><trkpt lat="42.9238663" lon="12.2116989"><ele>340.14285714285717</ele><time>2026-04-06T09:56:20.061Z</time></trkpt><trkpt lat="42.9238528" lon="12.2116028"><ele>335.2857142857143</ele><time>2026-04-06T09:56:27.003Z</time></trkpt><trkpt lat="42.9238453" lon="12.211512"><ele>330.42857142857144</ele><time>2026-04-06T09:56:31.073Z</time></trkpt><trkpt lat="42.9238534" lon="12.2114194"><ele>325.57142857142856</ele><time>2026-04-06T09:56:37.068Z</time></trkpt><trkpt lat="42.9239032" lon="12.211362"><ele>320.7142857142857</ele><time>2026-04-06T09:56:45.062Z</time></trkpt><trkpt lat="42.9239302" lon="12.2112714"><ele>315.85714285714283</ele><time>2026-04-06T09:56:53.065Z</time></trkpt><trkpt lat="42.9239599" lon="12.2111951"><ele>311.0</ele><time>2026-04-06T09:57:00.063Z</time></trkpt><trkpt lat="42.9239843" lon="12.2111048"><ele>310.4285714285714</ele><time>2026-04-06T09:57:09.038Z</time></trkpt><trkpt lat="42.9240429" lon="12.2110682"><ele>309.8571428571429</ele><time>2026-04-06T09:57:41.058Z</time></trkpt><trkpt lat="42.9240499" lon="12.2109785"><ele>309.2857142857143</ele><time>2026-04-06T09:57:53.993Z</time></trkpt><trkpt lat="42.9240789" lon="12.2108906"><ele>308.71428571428567</ele><time>2026-04-06T09:58:06.048Z</time></trkpt><trkpt lat="42.9240974" lon="12.2107925"><ele>308.1428571428571</ele><time>2026-04-06T09:58:14.055Z</time></trkpt><trkpt lat="42.9240797" lon="12.2106999"><ele>307.57142857142856</ele><time>2026-04-06T09:58:25.004Z</time></trkpt><trkpt lat="42.9240422" lon="12.2106244"><ele>307.0</ele><time>2026-04-06T09:58:30.065Z</time></trkpt><trkpt lat="42.9240225" lon="12.2105326"><ele>306.57142857142856</ele><time>2026-04-06T09:58:36.011Z</time></trkpt><trkpt lat="42.9239961" lon="12.2104508"><ele>306.1428571428571</ele><time>2026-04-06T09:58:41.992Z</time></trkpt><trkpt lat="42.9239482" lon="12.210386"><ele>305.71428571428567</ele><time>2026-04-06T09:58:50.994Z</time></trkpt><trkpt lat="42.9238942" lon="12.2103254"><ele>305.2857142857143</ele><time>2026-04-06T09:59:00.064Z</time></trkpt><trkpt lat="42.9238372" lon="12.2102721"><ele>304.8571428571429</ele><time>2026-04-06T09:59:06.993Z</time></trkpt><trkpt lat="42.9237772" lon="12.2102412"><ele>304.4285714285714</ele><time>2026-04-06T09:59:14.948Z</time></trkpt><trkpt lat="42.9237109" lon="12.2102251"><ele>304.0</ele><time>2026-04-06T09:59:20.992Z</time></trkpt><trkpt lat="42.9236478" lon="12.2102521"><ele>304.0</ele><time>2026-04-06T09:59:28.948Z</time></trkpt><trkpt lat="42.9235835" lon="12.210258"><ele>304.0</ele><time>2026-04-06T09:59:50.064Z</time></trkpt><trkpt lat="42.9235312" lon="12.2103145"><ele>304.0</ele><time>2026-04-06T10:02:29.042Z</time></trkpt><trkpt lat="42.923557" lon="12.2102319"><ele>304.0</ele><time>2026-04-06T10:07:27.019Z</time></trkpt><trkpt lat="42.9236054" lon="12.2101643"><ele>304.0</ele><time>2026-04-06T10:10:17.991Z</time></trkpt><trkpt lat="42.9236517" lon="12.2100893"><ele>304.0</ele><time>2026-04-06T10:10:23.992Z</time></trkpt><trkpt lat="42.9236601" lon="12.2100012"><ele>304.0</ele><time>2026-04-06T10:10:30.993Z</time></trkpt><trkpt lat="42.9236739" lon="12.2099169"><ele>304.0</ele><time>2026-04-06T10:10:38.067Z</time></trkpt><trkpt lat="42.9236008" lon="12.2099107"><ele>304.0</ele><time>2026-04-06T10:10:53.07Z</time></trkpt><trkpt lat="42.9235287" lon="12.2099298"><ele>304.0</ele><time>2026-04-06T10:11:22.993Z</time></trkpt><trkpt lat="42.9235854" lon="12.2098869"><ele>304.0</ele><time>2026-04-06T10:12:10.992Z</time></trkpt><trkpt lat="42.9236471" lon="12.20986"><ele>304.0</ele><time>2026-04-06T10:29:52.99Z</time></trkpt><trkpt lat="42.9236027" lon="12.2099225"><ele>304.0</ele><time>2026-04-06T10:30:33.991Z</time></trkpt><trkpt lat="42.9235443" lon="12.2099644"><ele>304.0</ele><time>2026-04-06T10:30:42.992Z</time></trkpt><trkpt lat="42.9235049" lon="12.2100409"><ele>304.0</ele><time>2026-04-06T10:30:54.035Z</time></trkpt><trkpt lat="42.9235344" lon="12.2101325"><ele>304.0</ele><time>2026-04-06T10:31:11.062Z</time></trkpt><trkpt lat="42.9235749" lon="12.2102077"><ele>304.0</ele><time>2026-04-06T10:31:16.991Z</time></trkpt><trkpt lat="42.9235164" lon="12.2101744"><ele>304.0</ele><time>2026-04-06T10:32:40.036Z</time></trkpt><trkpt lat="42.9236142" lon="12.2102102"><ele>304.0</ele><time>2026-04-06T10:32:48.034Z</time></trkpt><trkpt lat="42.9236765" lon="12.210189"><ele>304.0</ele><time>2026-04-06T10:32:54.009Z</time></trkpt><trkpt lat="42.9237518" lon="12.2102456"><ele>304.0</ele><time>2026-04-06T10:32:57.991Z</time></trkpt><trkpt lat="42.9238159" lon="12.2102517"><ele>304.0</ele><time>2026-04-06T10:33:05.947Z</time></trkpt><trkpt lat="42.9238805" lon="12.2102449"><ele>304.0</ele><time>2026-04-06T10:33:12.044Z</time></trkpt><trkpt lat="42.9238201" lon="12.2102764"><ele>304.0</ele><time>2026-04-06T10:34:00.991Z</time></trkpt><trkpt lat="42.9238894" lon="12.2102892"><ele>304.0</ele><time>2026-04-06T10:35:33.07Z</time></trkpt><trkpt lat="42.9239469" lon="12.2103404"><ele>304.0</ele><time>2026-04-06T10:35:43.071Z</time></trkpt><trkpt lat="42.9239922" lon="12.2104088"><ele>304.0</ele><time>2026-04-06T10:35:54.991Z</time></trkpt><trkpt lat="42.9240204" lon="12.2104941"><ele>304.0</ele><time>2026-04-06T10:36:06.044Z</time></trkpt><trkpt lat="42.9240563" lon="12.2105716"><ele>304.0</ele><time>2026-04-06T10:36:17.991Z</time></trkpt><trkpt lat="42.924044" lon="12.2106601"><ele>304.0</ele><time>2026-04-06T10:36:34.99Z</time></trkpt><trkpt lat="42.9240388" lon="12.2107482"><ele>304.0</ele><time>2026-04-06T10:36:43.992Z</time></trkpt><trkpt lat="42.9239942" lon="12.2108328"><ele>304.0</ele><time>2026-04-06T10:37:10.074Z</time></trkpt><trkpt lat="42.9239497" lon="12.2108985"><ele>304.0</ele><time>2026-04-06T10:37:17.062Z</time></trkpt><trkpt lat="42.9239236" lon="12.2109796"><ele>304.0</ele><time>2026-04-06T10:37:21.991Z</time></trkpt><trkpt lat="42.9239081" lon="12.2110722"><ele>304.4285714285714</ele><time>2026-04-06T10:37:28.043Z</time></trkpt><trkpt lat="42.9239174" lon="12.211171"><ele>304.8571428571429</ele><time>2026-04-06T10:37:38.99Z</time></trkpt><trkpt lat="42.923903" lon="12.2112605"><ele>305.2857142857143</ele><time>2026-04-06T10:37:45.99Z</time></trkpt><trkpt lat="42.9239073" lon="12.2113548"><ele>305.71428571428567</ele><time>2026-04-06T10:37:51.062Z</time></trkpt><trkpt lat="42.9238481" lon="12.2113964"><ele>306.1428571428571</ele><time>2026-04-06T10:38:01.992Z</time></trkpt><trkpt lat="42.9238369" lon="12.2114851"><ele>306.57142857142856</ele><time>2026-04-06T10:38:16.99Z</time></trkpt><trkpt lat="42.9238281" lon="12.2115732"><ele>307.0</ele><time>2026-04-06T10:38:22.99Z</time></trkpt><trkpt lat="42.9238329" lon="12.2116653"><ele>307.57142857142856</ele><time>2026-04-06T10:38:38.059Z</time></trkpt><trkpt lat="42.9238518" lon="12.2117559"><ele>308.1428571428571</ele><time>2026-04-06T10:38:44.069Z</time></trkpt><trkpt lat="42.9238756" lon="12.2118355"><ele>308.71428571428567</ele><time>2026-04-06T10:38:55.99Z</time></trkpt><trkpt lat="42.9239298" lon="12.2118926"><ele>309.2857142857143</ele><time>2026-04-06T10:39:10.991Z</time></trkpt><trkpt lat="42.9239903" lon="12.2119254"><ele>309.8571428571429</ele><time>2026-04-06T10:39:27.059Z</time></trkpt><trkpt lat="42.9240565" lon="12.211937"><ele>310.4285714285714</ele><time>2026-04-06T10:39:33.991Z</time></trkpt><trkpt lat="42.9241251" lon="12.2119561"><ele>311.0</ele><time>2026-04-06T10:39:41.048Z</time></trkpt><trkpt lat="42.9241917" lon="12.2119719"><ele>315.85714285714283</ele><time>2026-04-06T10:39:49.99Z</time></trkpt><trkpt lat="42.9242552" lon="12.2119602"><ele>320.7142857142857</ele><time>2026-04-06T10:39:58.99Z</time></trkpt><trkpt lat="42.9243286" lon="12.2119521"><ele>325.57142857142856</ele><time>2026-04-06T10:40:14.04Z</time></trkpt><trkpt lat="42.9243955" lon="12.2119502"><ele>330.42857142857144</ele><time>2026-04-06T10:41:41.06Z</time></trkpt><trkpt lat="42.9244686" lon="12.211953"><ele>335.2857142857143</ele><time>2026-04-06T10:41:48.049Z</time></trkpt><trkpt lat="42.9245327" lon="12.2119838"><ele>340.14285714285717</ele><time>2026-04-06T10:41:57.067Z</time></trkpt><trkpt lat="42.9246001" lon="12.212011"><ele>345.0</ele><time>2026-04-06T10:42:06.061Z</time></trkpt><trkpt lat="42.924666" lon="12.2120416"><ele>345.0</ele><time>2026-04-06T10:42:14.043Z</time></trkpt><trkpt lat="42.9247342" lon="12.212065"><ele>345.0</ele><time>2026-04-06T10:42:22.038Z</time></trkpt><trkpt lat="42.9247925" lon="12.212115"><ele>345.0</ele><time>2026-04-06T10:42:37.072Z</time></trkpt><trkpt lat="42.9248746" lon="12.2121864"><ele>345.0</ele><time>2026-04-06T10:42:51.057Z</time></trkpt><trkpt lat="42.9249394" lon="12.2122336"><ele>345.0</ele><time>2026-04-06T10:42:57.989Z</time></trkpt><trkpt lat="42.9249957" lon="12.2122749"><ele>345.0</ele><time>2026-04-06T10:43:03.991Z</time></trkpt><trkpt lat="42.9250511" lon="12.2123249"><ele>345.0</ele><time>2026-04-06T10:43:09.95Z</time></trkpt><trkpt lat="42.9251166" lon="12.2123328"><ele>345.2857142857143</ele><time>2026-04-06T10:43:16.054Z</time></trkpt><trkpt lat="42.9251841" lon="12.2123314"><ele>345.57142857142856</ele><time>2026-04-06T10:43:27.989Z</time></trkpt><trkpt lat="42.925253" lon="12.2123502"><ele>345.8571428571429</ele><time>2026-04-06T10:43:38.043Z</time></trkpt><trkpt lat="42.9253146" lon="12.2123718"><ele>346.1428571428571</ele><time>2026-04-06T10:43:42.065Z</time></trkpt><trkpt lat="42.925385" lon="12.2123747"><ele>346.4285714285714</ele><time>2026-04-06T10:43:48.991Z</time></trkpt><trkpt lat="42.9254511" lon="12.2123754"><ele>346.7142857142857</ele><time>2026-04-06T10:43:56.989Z</time></trkpt><trkpt lat="42.9255166" lon="12.2123692"><ele>347.0</ele><time>2026-04-06T10:44:04.989Z</time></trkpt><trkpt lat="42.925571" lon="12.2123146"><ele>347.0</ele><time>2026-04-06T10:44:14.989Z</time></trkpt><trkpt lat="42.9256276" lon="12.2123708"><ele>347.0</ele><time>2026-04-06T10:44:23.991Z</time></trkpt><trkpt lat="42.925667" lon="12.2124496"><ele>347.0</ele><time>2026-04-06T10:44:30.99Z</time></trkpt><trkpt lat="42.9257187" lon="12.2125254"><ele>347.0</ele><time>2026-04-06T10:44:49.045Z</time></trkpt><trkpt lat="42.9257826" lon="12.212556"><ele>347.0</ele><time>2026-04-06T10:44:55.988Z</time></trkpt><trkpt lat="42.9258127" lon="12.2126334"><ele>347.0</ele><time>2026-04-06T10:45:09.003Z</time></trkpt><trkpt lat="42.9258201" lon="12.2127419"><ele>347.0</ele><time>2026-04-06T10:45:14.047Z</time></trkpt><trkpt lat="42.9258206" lon="12.2128293"><ele>347.0</ele><time>2026-04-06T10:45:18.989Z</time></trkpt><trkpt lat="42.925823" lon="12.2129246"><ele>347.0</ele><time>2026-04-06T10:45:25.991Z</time></trkpt><trkpt lat="42.9258368" lon="12.2130086"><ele>347.0</ele><time>2026-04-06T10:45:33.927Z</time></trkpt><trkpt lat="42.9258174" lon="12.2130966"><ele>347.0</ele><time>2026-04-06T10:45:41.989Z</time></trkpt><trkpt lat="42.9257959" lon="12.2131834"><ele>347.0</ele><time>2026-04-06T10:45:47.069Z</time></trkpt><trkpt lat="42.9257768" lon="12.213277"><ele>347.0</ele><time>2026-04-06T10:45:52.99Z</time></trkpt><trkpt lat="42.9257852" lon="12.2133627"><ele>347.0</ele><time>2026-04-06T10:45:58.039Z</time></trkpt><trkpt lat="42.9258043" lon="12.2134474"><ele>347.14285714285717</ele><time>2026-04-06T10:46:10.991Z</time></trkpt><trkpt lat="42.9258396" lon="12.2135258"><ele>347.2857142857143</ele><time>2026-04-06T10:46:19.059Z</time></trkpt><trkpt lat="42.9258208" lon="12.2134422"><ele>347.42857142857144</ele><time>2026-04-06T10:47:23.99Z</time></trkpt><trkpt lat="42.9258317" lon="12.2135338"><ele>347.57142857142856</ele><time>2026-04-06T10:48:36.989Z</time></trkpt><trkpt lat="42.9258777" lon="12.2135993"><ele>347.7142857142857</ele><time>2026-04-06T10:48:44.908Z</time></trkpt><trkpt lat="42.9259439" lon="12.2136231"><ele>347.85714285714283</ele><time>2026-04-06T10:48:52.996Z</time></trkpt><trkpt lat="42.9260025" lon="12.2135916"><ele>348.0</ele><time>2026-04-06T10:49:00.962Z</time></trkpt><trkpt lat="42.9260463" lon="12.2135287"><ele>348.0</ele><time>2026-04-06T10:49:07.043Z</time></trkpt><trkpt lat="42.9261049" lon="12.2134884"><ele>348.0</ele><time>2026-04-06T10:49:15.042Z</time></trkpt><trkpt lat="42.9261612" lon="12.2134491"><ele>348.0</ele><time>2026-04-06T10:49:22.037Z</time></trkpt><trkpt lat="42.9262231" lon="12.2134092"><ele>348.0</ele><time>2026-04-06T10:49:29.063Z</time></trkpt><trkpt lat="42.9262955" lon="12.2133597"><ele>348.0</ele><time>2026-04-06T10:49:56.035Z</time></trkpt><trkpt lat="42.9263636" lon="12.2133304"><ele>348.0</ele><time>2026-04-06T10:49:59.989Z</time></trkpt><trkpt lat="42.9264281" lon="12.2133002"><ele>348.0</ele><time>2026-04-06T10:50:05.987Z</time></trkpt><trkpt lat="42.9264958" lon="12.2132973"><ele>348.0</ele><time>2026-04-06T10:50:11.058Z</time></trkpt><trkpt lat="42.9265712" lon="12.2133003"><ele>348.0</ele><time>2026-04-06T10:50:19.039Z</time></trkpt><trkpt lat="42.9266388" lon="12.2132968"><ele>348.0</ele><time>2026-04-06T10:50:26.059Z</time></trkpt><trkpt lat="42.9267067" lon="12.2132539"><ele>348.0</ele><time>2026-04-06T10:50:34.064Z</time></trkpt><trkpt lat="42.9267686" lon="12.213226"><ele>348.0</ele><time>2026-04-06T10:50:41.063Z</time></trkpt><trkpt lat="42.9268361" lon="12.2132234"><ele>348.0</ele><time>2026-04-06T10:50:45.995Z</time></trkpt><trkpt lat="42.9269028" lon="12.2132553"><ele>348.0</ele><time>2026-04-06T10:50:51.061Z</time></trkpt><trkpt lat="42.9269764" lon="12.2132674"><ele>348.7142857142857</ele><time>2026-04-06T10:50:57.041Z</time></trkpt><trkpt lat="42.9270504" lon="12.2132409"><ele>349.42857142857144</ele><time>2026-04-06T10:51:13.039Z</time></trkpt><trkpt lat="42.927012" lon="12.2131495"><ele>350.1428571428571</ele><time>2026-04-06T10:51:55.995Z</time></trkpt><trkpt lat="42.9270137" lon="12.2130628"><ele>350.8571428571429</ele><time>2026-04-06T10:51:59.986Z</time></trkpt><trkpt lat="42.9270454" lon="12.2129883"><ele>351.5714285714286</ele><time>2026-04-06T10:52:08.988Z</time></trkpt><trkpt lat="42.927105" lon="12.2129336"><ele>352.2857142857143</ele><time>2026-04-06T10:52:14.99Z</time></trkpt><trkpt lat="42.9271872" lon="12.2129209"><ele>353.0</ele><time>2026-04-06T10:52:43.986Z</time></trkpt><trkpt lat="42.9271866" lon="12.2128326"><ele>355.57142857142856</ele><time>2026-04-06T10:53:18.995Z</time></trkpt><trkpt lat="42.927137" lon="12.2127787"><ele>358.14285714285717</ele><time>2026-04-06T10:53:36.061Z</time></trkpt><trkpt lat="42.9270884" lon="12.212721"><ele>360.7142857142857</ele><time>2026-04-06T10:53:47.994Z</time></trkpt><trkpt lat="42.9271055" lon="12.2126264"><ele>363.2857142857143</ele><time>2026-04-06T10:54:04.99Z</time></trkpt><trkpt lat="42.9271713" lon="12.2126291"><ele>365.8571428571429</ele><time>2026-04-06T10:55:04.988Z</time></trkpt><trkpt lat="42.9271051" lon="12.2126277"><ele>368.42857142857144</ele><time>2026-04-06T10:55:42.989Z</time></trkpt><trkpt lat="42.927037" lon="12.2126003"><ele>371.0</ele><time>2026-04-06T10:55:52.988Z</time></trkpt><trkpt lat="42.9269696" lon="12.2126075"><ele>371.0</ele><time>2026-04-06T10:56:02.988Z</time></trkpt><trkpt lat="42.9269122" lon="12.2125674"><ele>371.0</ele><time>2026-04-06T10:56:10.038Z</time></trkpt><trkpt lat="42.9268839" lon="12.2124895"><ele>371.0</ele><time>2026-04-06T10:56:21.989Z</time></trkpt><trkpt lat="42.9268228" lon="12.2124657"><ele>371.0</ele><time>2026-04-06T10:56:44.993Z</time></trkpt><trkpt lat="42.9267613" lon="12.2124383"><ele>371.0</ele><time>2026-04-06T10:56:55.989Z</time></trkpt><trkpt lat="42.9267054" lon="12.2123938"><ele>371.0</ele><time>2026-04-06T10:57:09.99Z</time></trkpt><trkpt lat="42.9266273" lon="12.2122531"><ele>375.14285714285717</ele><time>2026-04-06T10:57:33.989Z</time></trkpt><trkpt lat="42.926666" lon="12.2121787"><ele>379.2857142857143</ele><time>2026-04-06T10:58:42.988Z</time></trkpt><trkpt lat="42.9266442" lon="12.2122624"><ele>383.42857142857144</ele><time>2026-04-06T11:04:09.989Z</time></trkpt><trkpt lat="42.926581" lon="12.2122636"><ele>387.57142857142856</ele><time>2026-04-06T11:04:24.988Z</time></trkpt><trkpt lat="42.926566" lon="12.2121764"><ele>391.7142857142857</ele><time>2026-04-06T11:04:44.992Z</time></trkpt><trkpt lat="42.9265722" lon="12.2120879"><ele>395.8571428571429</ele><time>2026-04-06T11:04:56.904Z</time></trkpt><trkpt lat="42.9265535" lon="12.212003"><ele>400.0</ele><time>2026-04-06T11:05:06.946Z</time></trkpt><trkpt lat="42.9265804" lon="12.2119165"><ele>400.00000000000006</ele><time>2026-04-06T11:05:13.988Z</time></trkpt><trkpt lat="42.9266122" lon="12.2118313"><ele>400.0</ele><time>2026-04-06T11:05:23.004Z</time></trkpt><trkpt lat="42.9266532" lon="12.2117524"><ele>400.0</ele><time>2026-04-06T11:05:37.988Z</time></trkpt><trkpt lat="42.9266938" lon="12.211677"><ele>400.0</ele><time>2026-04-06T11:05:43.987Z</time></trkpt><trkpt lat="42.9267508" lon="12.2116242"><ele>400.0</ele><time>2026-04-06T11:05:56.988Z</time></trkpt><trkpt lat="42.9268208" lon="12.2116288"><ele>400.00000000000006</ele><time>2026-04-06T11:06:05.983Z</time></trkpt><trkpt lat="42.9268908" lon="12.2116128"><ele>400.0</ele><time>2026-04-06T11:06:12.987Z</time></trkpt><trkpt lat="42.9269567" lon="12.2115836"><ele>400.28571428571433</ele><time>2026-04-06T11:06:19.988Z</time></trkpt><trkpt lat="42.9269884" lon="12.2114982"><ele>400.57142857142856</ele><time>2026-04-06T11:06:47.988Z</time></trkpt><trkpt lat="42.9270389" lon="12.2114432"><ele>400.8571428571429</ele><time>2026-04-06T11:06:56.987Z</time></trkpt><trkpt lat="42.9270794" lon="12.2113699"><ele>401.14285714285717</ele><time>2026-04-06T11:07:01.987Z</time></trkpt><trkpt lat="42.9270985" lon="12.211281"><ele>401.42857142857144</ele><time>2026-04-06T11:07:10.987Z</time></trkpt><trkpt lat="42.9271193" lon="12.2111968"><ele>401.7142857142857</ele><time>2026-04-06T11:07:22.989Z</time></trkpt><trkpt lat="42.9271793" lon="12.2111581"><ele>402.0</ele><time>2026-04-06T11:07:43.988Z</time></trkpt><trkpt lat="42.9272679" lon="12.2111342"><ele>405.1428571428571</ele><time>2026-04-06T11:08:10.988Z</time></trkpt><trkpt lat="42.9273191" lon="12.2110692"><ele>408.28571428571433</ele><time>2026-04-06T11:08:15.988Z</time></trkpt><trkpt lat="42.9273783" lon="12.2110163"><ele>411.42857142857144</ele><time>2026-04-06T11:08:22.982Z</time></trkpt><trkpt lat="42.9274386" lon="12.2109863"><ele>414.57142857142856</ele><time>2026-04-06T11:08:29.988Z</time></trkpt><trkpt lat="42.9274665" lon="12.2109043"><ele>417.71428571428567</ele><time>2026-04-06T11:08:37.987Z</time></trkpt><trkpt lat="42.9274766" lon="12.2108142"><ele>420.8571428571429</ele><time>2026-04-06T11:08:46.996Z</time></trkpt><trkpt lat="42.9274722" lon="12.2107277"><ele>424.0</ele><time>2026-04-06T11:08:58.987Z</time></trkpt><trkpt lat="42.9274792" lon="12.210637"><ele>424.0</ele><time>2026-04-06T11:09:07.987Z</time></trkpt><trkpt lat="42.927509" lon="12.2105557"><ele>424.0</ele><time>2026-04-06T11:09:16.989Z</time></trkpt><trkpt lat="42.9275636" lon="12.2105106"><ele>424.0</ele><time>2026-04-06T11:14:49.986Z</time></trkpt><trkpt lat="42.9276275" lon="12.2105272"><ele>424.0</ele><time>2026-04-06T11:14:54.987Z</time></trkpt><trkpt lat="42.9276955" lon="12.2105389"><ele>424.0</ele><time>2026-04-06T11:14:58.987Z</time></trkpt><trkpt lat="42.9277617" lon="12.21056"><ele>424.0</ele><time>2026-04-06T11:15:04.986Z</time></trkpt><trkpt lat="42.9278345" lon="12.2105898"><ele>424.0</ele><time>2026-04-06T11:15:11.004Z</time></trkpt><trkpt lat="42.9278975" lon="12.210612"><ele>424.0</ele><time>2026-04-06T11:15:16.987Z</time></trkpt><trkpt lat="42.9279696" lon="12.2106272"><ele>424.0</ele><time>2026-04-06T11:15:24.986Z</time></trkpt><trkpt lat="42.9280345" lon="12.2106401"><ele>424.0</ele><time>2026-04-06T11:15:30.988Z</time></trkpt><trkpt lat="42.9281063" lon="12.2106567"><ele>424.0</ele><time>2026-04-06T11:15:37.986Z</time></trkpt><trkpt lat="42.9281772" lon="12.2106689"><ele>424.0</ele><time>2026-04-06T11:15:44.997Z</time></trkpt><trkpt lat="42.9282456" lon="12.210657"><ele>424.0</ele><time>2026-04-06T11:15:50.886Z</time></trkpt><trkpt lat="42.9283154" lon="12.2106647"><ele>424.0</ele><time>2026-04-06T11:15:56.986Z</time></trkpt><trkpt lat="42.9283688" lon="12.2107245"><ele>424.7142857142857</ele><time>2026-04-06T11:16:03.914Z</time></trkpt><trkpt lat="42.928439" lon="12.2107333"><ele>425.4285714285714</ele><time>2026-04-06T11:16:09.986Z</time></trkpt><trkpt lat="42.9285053" lon="12.2107444"><ele>426.1428571428571</ele><time>2026-04-06T11:16:15.986Z</time></trkpt><trkpt lat="42.9285807" lon="12.2107492"><ele>426.8571428571429</ele><time>2026-04-06T11:16:22.987Z</time></trkpt><trkpt lat="42.9286377" lon="12.2107948"><ele>427.57142857142856</ele><time>2026-04-06T11:16:28.987Z</time></trkpt><trkpt lat="42.9286982" lon="12.2108404"><ele>428.2857142857143</ele><time>2026-04-06T11:16:34.974Z</time></trkpt><trkpt lat="42.9287574" lon="12.2108838"><ele>429.0</ele><time>2026-04-06T11:16:40.987Z</time></trkpt><trkpt lat="42.9288268" lon="12.2109078"><ele>429.0</ele><time>2026-04-06T11:16:46.986Z</time></trkpt><trkpt lat="42.9288954" lon="12.2109247"><ele>429.0</ele><time>2026-04-06T11:16:52.986Z</time></trkpt><trkpt lat="42.9289604" lon="12.210944"><ele>429.0</ele><time>2026-04-06T11:16:58.987Z</time></trkpt><trkpt lat="42.9290297" lon="12.2109341"><ele>429.0</ele><time>2026-04-06T11:17:07.981Z</time></trkpt><trkpt lat="42.9290542" lon="12.2110147"><ele>429.0</ele><time>2026-04-06T11:17:14.951Z</time></trkpt><trkpt lat="42.9291193" lon="12.2110604"><ele>429.0</ele><time>2026-04-06T11:17:18.951Z</time></trkpt><trkpt lat="42.9291808" lon="12.2111186"><ele>429.0</ele><time>2026-04-06T11:17:23.986Z</time></trkpt><trkpt lat="42.9292213" lon="12.2111868"><ele>427.42857142857144</ele><time>2026-04-06T11:17:29.987Z</time></trkpt><trkpt lat="42.9292651" lon="12.2112651"><ele>425.8571428571429</ele><time>2026-04-06T11:17:36.986Z</time></trkpt><trkpt lat="42.9292973" lon="12.2113497"><ele>424.2857142857143</ele><time>2026-04-06T11:17:42.994Z</time></trkpt><trkpt lat="42.9293257" lon="12.2114286"><ele>422.7142857142857</ele><time>2026-04-06T11:17:48.894Z</time></trkpt><trkpt lat="42.9293635" lon="12.2115037"><ele>421.1428571428571</ele><time>2026-04-06T11:17:54.986Z</time></trkpt><trkpt lat="42.9294046" lon="12.2115726"><ele>419.57142857142856</ele><time>2026-04-06T11:18:01.008Z</time></trkpt><trkpt lat="42.9294375" lon="12.2116599"><ele>418.0</ele><time>2026-04-06T11:18:10.987Z</time></trkpt><trkpt lat="42.9294624" lon="12.2117454"><ele>418.0</ele><time>2026-04-06T11:18:17.987Z</time></trkpt><trkpt lat="42.9295024" lon="12.2118266"><ele>418.0</ele><time>2026-04-06T11:18:31.999Z</time></trkpt><trkpt lat="42.9295302" lon="12.2119095"><ele>418.0</ele><time>2026-04-06T11:18:37.986Z</time></trkpt><trkpt lat="42.9295653" lon="12.2119953"><ele>418.0</ele><time>2026-04-06T11:18:44.995Z</time></trkpt><trkpt lat="42.9296113" lon="12.212073"><ele>418.0</ele><time>2026-04-06T11:18:51.986Z</time></trkpt><trkpt lat="42.9296602" lon="12.2121478"><ele>418.0</ele><time>2026-04-06T11:18:58.987Z</time></trkpt><trkpt lat="42.929683" lon="12.2122343"><ele>418.0</ele><time>2026-04-06T11:19:21.99Z</time></trkpt><trkpt lat="42.929735" lon="12.2122951"><ele>419.42857142857144</ele><time>2026-04-06T11:19:27.986Z</time></trkpt><trkpt lat="42.9297958" lon="12.2123361"><ele>420.85714285714283</ele><time>2026-04-06T11:19:33.986Z</time></trkpt><trkpt lat="42.9298133" lon="12.2124272"><ele>422.28571428571433</ele><time>2026-04-06T11:19:40.986Z</time></trkpt><trkpt lat="42.9298334" lon="12.212515"><ele>423.7142857142857</ele><time>2026-04-06T11:19:46.987Z</time></trkpt><trkpt lat="42.9298539" lon="12.2125968"><ele>425.14285714285717</ele><time>2026-04-06T11:19:52.983Z</time></trkpt><trkpt lat="42.9298808" lon="12.2126821"><ele>426.5714285714286</ele><time>2026-04-06T11:19:58.986Z</time></trkpt><trkpt lat="42.9299076" lon="12.2127624"><ele>428.0</ele><time>2026-04-06T11:20:04.987Z</time></trkpt><trkpt lat="42.9299288" lon="12.2128522"><ele>428.00000000000006</ele><time>2026-04-06T11:20:10.987Z</time></trkpt><trkpt lat="42.9299654" lon="12.2129309"><ele>428.0</ele><time>2026-04-06T11:20:16.986Z</time></trkpt><trkpt lat="42.9300147" lon="12.2129872"><ele>428.0</ele><time>2026-04-06T11:20:22.987Z</time></trkpt><trkpt lat="42.9300517" lon="12.2130724"><ele>428.0</ele><time>2026-04-06T11:20:28.988Z</time></trkpt><trkpt lat="42.9300945" lon="12.2131428"><ele>428.0</ele><time>2026-04-06T11:20:34.986Z</time></trkpt><trkpt lat="42.930135" lon="12.2132218"><ele>428.00000000000006</ele><time>2026-04-06T11:20:40.986Z</time></trkpt><trkpt lat="42.93017" lon="12.2132993"><ele>428.0</ele><time>2026-04-06T11:20:46.986Z</time></trkpt><trkpt lat="42.9302093" lon="12.2133793"><ele>427.7142857142857</ele><time>2026-04-06T11:20:52.985Z</time></trkpt><trkpt lat="42.9302464" lon="12.2134541"><ele>427.42857142857144</ele><time>2026-04-06T11:20:57.847Z</time></trkpt><trkpt lat="42.930294" lon="12.2135131"><ele>427.1428571428571</ele><time>2026-04-06T11:21:02.985Z</time></trkpt><trkpt lat="42.9303504" lon="12.2135609"><ele>426.8571428571429</ele><time>2026-04-06T11:21:07.985Z</time></trkpt><trkpt lat="42.9304019" lon="12.2136262"><ele>426.57142857142856</ele><time>2026-04-06T11:21:13.985Z</time></trkpt><trkpt lat="42.9304556" lon="12.2136854"><ele>426.2857142857143</ele><time>2026-04-06T11:21:20.985Z</time></trkpt><trkpt lat="42.9305257" lon="12.2136836"><ele>426.0</ele><time>2026-04-06T11:21:28.986Z</time></trkpt><trkpt lat="42.9305716" lon="12.2137529"><ele>425.99999999999994</ele><time>2026-04-06T11:21:38.008Z</time></trkpt><trkpt lat="42.9305915" lon="12.2138396"><ele>426.0</ele><time>2026-04-06T11:21:43.985Z</time></trkpt><trkpt lat="42.9306345" lon="12.2139037"><ele>426.0</ele><time>2026-04-06T11:21:50.986Z</time></trkpt><trkpt lat="42.9306484" lon="12.213996"><ele>426.0</ele><time>2026-04-06T11:21:58.986Z</time></trkpt><trkpt lat="42.9306673" lon="12.2140887"><ele>426.0</ele><time>2026-04-06T11:22:11.986Z</time></trkpt><trkpt lat="42.9307076" lon="12.2141679"><ele>425.99999999999994</ele><time>2026-04-06T11:22:19.985Z</time></trkpt><trkpt lat="42.9307475" lon="12.21424"><ele>426.0</ele><time>2026-04-06T11:22:26.06Z</time></trkpt><trkpt lat="42.9307802" lon="12.2143214"><ele>426.71428571428567</ele><time>2026-04-06T11:22:32.985Z</time></trkpt><trkpt lat="42.9308312" lon="12.2143787"><ele>427.42857142857144</ele><time>2026-04-06T11:22:39.888Z</time></trkpt><trkpt lat="42.9308962" lon="12.2144016"><ele>428.1428571428571</ele><time>2026-04-06T11:22:50.041Z</time></trkpt><trkpt lat="42.9309356" lon="12.2144768"><ele>428.85714285714283</ele><time>2026-04-06T11:23:02.986Z</time></trkpt><trkpt lat="42.9309971" lon="12.214439"><ele>429.57142857142856</ele><time>2026-04-06T11:23:16.986Z</time></trkpt><trkpt lat="42.9310287" lon="12.2145279"><ele>430.2857142857143</ele><time>2026-04-06T11:24:11.985Z</time></trkpt><trkpt lat="42.9310524" lon="12.2146142"><ele>431.0</ele><time>2026-04-06T11:24:21.987Z</time></trkpt><trkpt lat="42.9310927" lon="12.2146911"><ele>431.0</ele><time>2026-04-06T11:24:30.034Z</time></trkpt><trkpt lat="42.931139" lon="12.2147662"><ele>431.0</ele><time>2026-04-06T11:24:37.842Z</time></trkpt><trkpt lat="42.9311866" lon="12.2148352"><ele>431.0</ele><time>2026-04-06T11:24:45.987Z</time></trkpt><trkpt lat="42.9312268" lon="12.2149236"><ele>431.0</ele><time>2026-04-06T11:24:52.985Z</time></trkpt><trkpt lat="42.9312775" lon="12.2149758"><ele>431.0</ele><time>2026-04-06T11:24:59.986Z</time></trkpt><trkpt lat="42.931321" lon="12.2150563"><ele>431.0</ele><time>2026-04-06T11:25:07.985Z</time></trkpt><trkpt lat="42.9313493" lon="12.2151417"><ele>431.0</ele><time>2026-04-06T11:25:14.765Z</time></trkpt><trkpt lat="42.9313706" lon="12.2152257"><ele>433.57142857142856</ele><time>2026-04-06T11:25:23.007Z</time></trkpt><trkpt lat="42.9314211" lon="12.21528"><ele>436.1428571428571</ele><time>2026-04-06T11:25:29.985Z</time></trkpt><trkpt lat="42.9314724" lon="12.2153413"><ele>438.71428571428567</ele><time>2026-04-06T11:25:37.948Z</time></trkpt><trkpt lat="42.9315353" lon="12.2153788"><ele>441.2857142857143</ele><time>2026-04-06T11:26:38.986Z</time></trkpt><trkpt lat="42.9315453" lon="12.2154735"><ele>443.8571428571428</ele><time>2026-04-06T11:26:44.967Z</time></trkpt><trkpt lat="42.9315523" lon="12.2155686"><ele>446.4285714285714</ele><time>2026-04-06T11:26:50.985Z</time></trkpt><trkpt lat="42.9315679" lon="12.215652"><ele>449.0</ele><time>2026-04-06T11:26:57.985Z</time></trkpt><trkpt lat="42.931593" lon="12.2157387"><ele>450.57142857142856</ele><time>2026-04-06T11:27:04.985Z</time></trkpt><trkpt lat="42.9316119" lon="12.2158284"><ele>452.1428571428571</ele><time>2026-04-06T11:27:14.908Z</time></trkpt><trkpt lat="42.9316143" lon="12.2159201"><ele>453.71428571428567</ele><time>2026-04-06T11:27:21.986Z</time></trkpt><trkpt lat="42.9316461" lon="12.215996"><ele>455.2857142857142</ele><time>2026-04-06T11:27:29.986Z</time></trkpt><trkpt lat="42.9316683" lon="12.2160801"><ele>456.85714285714283</ele><time>2026-04-06T11:27:36.991Z</time></trkpt><trkpt lat="42.9316825" lon="12.2161761"><ele>458.42857142857133</ele><time>2026-04-06T11:27:41.909Z</time></trkpt><trkpt lat="42.9316919" lon="12.2162673"><ele>459.99999999999994</ele><time>2026-04-06T11:27:46.985Z</time></trkpt><trkpt lat="42.9317016" lon="12.2163526"><ele>460.2857142857142</ele><time>2026-04-06T11:27:53.986Z</time></trkpt><trkpt lat="42.9317294" lon="12.2164299"><ele>460.57142857142856</ele><time>2026-04-06T11:28:03.985Z</time></trkpt><trkpt lat="42.9317515" lon="12.2165219"><ele>460.85714285714283</ele><time>2026-04-06T11:28:10.985Z</time></trkpt><trkpt lat="42.9317755" lon="12.2166023"><ele>461.1428571428571</ele><time>2026-04-06T11:28:16.987Z</time></trkpt><trkpt lat="42.9317813" lon="12.2166894"><ele>461.42857142857144</ele><time>2026-04-06T11:28:22.985Z</time></trkpt><trkpt lat="42.9318028" lon="12.2167808"><ele>461.7142857142857</ele><time>2026-04-06T11:28:29.923Z</time></trkpt><trkpt lat="42.9318284" lon="12.2168616"><ele>462.0</ele><time>2026-04-06T11:28:35.985Z</time></trkpt><trkpt lat="42.9318471" lon="12.21695"><ele>462.0</ele><time>2026-04-06T11:28:42.987Z</time></trkpt><trkpt lat="42.9318701" lon="12.2170448"><ele>462.0</ele><time>2026-04-06T11:29:04.985Z</time></trkpt><trkpt lat="42.9318867" lon="12.2171323"><ele>462.0</ele><time>2026-04-06T11:29:10.985Z</time></trkpt><trkpt lat="42.9319092" lon="12.2172214"><ele>462.0</ele><time>2026-04-06T11:29:16.985Z</time></trkpt><trkpt lat="42.931926" lon="12.2173074"><ele>462.0</ele><time>2026-04-06T11:29:22.986Z</time></trkpt><trkpt lat="42.931951" lon="12.2173988"><ele>462.0</ele><time>2026-04-06T11:29:29.985Z</time></trkpt><trkpt lat="42.9319642" lon="12.2175006"><ele>462.0</ele><time>2026-04-06T11:29:35.985Z</time></trkpt><trkpt lat="42.9320066" lon="12.2175834"><ele>463.7142857142857</ele><time>2026-04-06T11:29:42.036Z</time></trkpt><trkpt lat="42.9320665" lon="12.2176219"><ele>465.42857142857144</ele><time>2026-04-06T11:29:47.984Z</time></trkpt><trkpt lat="42.9321308" lon="12.2176644"><ele>467.1428571428571</ele><time>2026-04-06T11:29:54.984Z</time></trkpt><trkpt lat="42.9321867" lon="12.2177099"><ele>468.85714285714283</ele><time>2026-04-06T11:29:59.984Z</time></trkpt><trkpt lat="42.9322439" lon="12.2177472"><ele>470.57142857142856</ele><time>2026-04-06T11:30:04.985Z</time></trkpt><trkpt lat="42.9323079" lon="12.2177868"><ele>472.2857142857142</ele><time>2026-04-06T11:30:10.986Z</time></trkpt><trkpt lat="42.9323677" lon="12.217835"><ele>473.99999999999994</ele><time>2026-04-06T11:30:17.984Z</time></trkpt><trkpt lat="42.9324296" lon="12.2178576"><ele>473.99999999999994</ele><time>2026-04-06T11:30:25.984Z</time></trkpt><trkpt lat="42.9324908" lon="12.217894"><ele>474.0</ele><time>2026-04-06T11:30:30.965Z</time></trkpt><trkpt lat="42.9325447" lon="12.2179431"><ele>473.99999999999994</ele><time>2026-04-06T11:30:35.984Z</time></trkpt><trkpt lat="42.9326033" lon="12.2180011"><ele>473.99999999999994</ele><time>2026-04-06T11:30:41.985Z</time></trkpt><trkpt lat="42.9326559" lon="12.2180613"><ele>474.0</ele><time>2026-04-06T11:30:47.986Z</time></trkpt><trkpt lat="42.9327033" lon="12.2181212"><ele>473.99999999999994</ele><time>2026-04-06T11:30:52.95Z</time></trkpt><trkpt lat="42.9327561" lon="12.2181781"><ele>473.99999999999994</ele><time>2026-04-06T11:30:57.984Z</time></trkpt><trkpt lat="42.9328141" lon="12.2182291"><ele>475.2857142857142</ele><time>2026-04-06T11:31:02.985Z</time></trkpt><trkpt lat="42.9328788" lon="12.2182615"><ele>476.57142857142856</ele><time>2026-04-06T11:31:08.888Z</time></trkpt><trkpt lat="42.932939" lon="12.2182959"><ele>477.85714285714283</ele><time>2026-04-06T11:31:14.985Z</time></trkpt><trkpt lat="42.9330066" lon="12.2183047"><ele>479.1428571428571</ele><time>2026-04-06T11:31:20.95Z</time></trkpt><trkpt lat="42.9330709" lon="12.21831"><ele>480.42857142857144</ele><time>2026-04-06T11:31:27.984Z</time></trkpt><trkpt lat="42.9331076" lon="12.2183901"><ele>481.7142857142857</ele><time>2026-04-06T11:31:33.984Z</time></trkpt><trkpt lat="42.9331587" lon="12.2184483"><ele>483.0</ele><time>2026-04-06T11:31:39.987Z</time></trkpt><trkpt lat="42.9332154" lon="12.2184958"><ele>483.0</ele><time>2026-04-06T11:31:46.887Z</time></trkpt><trkpt lat="42.9332778" lon="12.2185104"><ele>483.0</ele><time>2026-04-06T11:31:53.95Z</time></trkpt><trkpt lat="42.9333437" lon="12.2185162"><ele>483.0</ele><time>2026-04-06T11:32:02.985Z</time></trkpt><trkpt lat="42.9334125" lon="12.2185255"><ele>483.0</ele><time>2026-04-06T11:32:08.984Z</time></trkpt><trkpt lat="42.9334754" lon="12.2185415"><ele>483.0</ele><time>2026-04-06T11:32:15.054Z</time></trkpt><trkpt lat="42.9335463" lon="12.2185441"><ele>483.0</ele><time>2026-04-06T11:32:22.985Z</time></trkpt><trkpt lat="42.9336089" lon="12.2185066"><ele>483.0</ele><time>2026-04-06T11:32:29.984Z</time></trkpt><trkpt lat="42.9336613" lon="12.2184565"><ele>482.57142857142856</ele><time>2026-04-06T11:32:37.064Z</time></trkpt><trkpt lat="42.9337196" lon="12.2183999"><ele>482.1428571428571</ele><time>2026-04-06T11:32:43.984Z</time></trkpt><trkpt lat="42.9337173" lon="12.2183134"><ele>481.7142857142857</ele><time>2026-04-06T11:32:52.984Z</time></trkpt><trkpt lat="42.9336794" lon="12.2182306"><ele>481.2857142857143</ele><time>2026-04-06T11:32:59.984Z</time></trkpt><trkpt lat="42.9336803" lon="12.2181349"><ele>480.85714285714283</ele><time>2026-04-06T11:33:06.985Z</time></trkpt><trkpt lat="42.9336671" lon="12.2180447"><ele>480.42857142857144</ele><time>2026-04-06T11:33:12.907Z</time></trkpt><trkpt lat="42.9336699" lon="12.2179516"><ele>480.0</ele><time>2026-04-06T11:33:19.986Z</time></trkpt><trkpt lat="42.9336654" lon="12.2178615"><ele>477.0</ele><time>2026-04-06T11:33:48.985Z</time></trkpt><trkpt lat="42.933692" lon="12.2177579"><ele>477.0</ele><time>2026-04-06T11:33:52.985Z</time></trkpt><trkpt lat="42.9337487" lon="12.2176847"><ele>477.0</ele><time>2026-04-06T11:33:59.984Z</time></trkpt></trkseg></trk></gpx>